<?xml version="1.0" encoding="UTF-8" standalone="no" ?>
<gpx xmlns="http://www.topografix.com/GPX/1/1" xmlns:xsi="http://www.w3.org/2001/XMLSchema-instance" xsi:schemaLocation="http://www.topografix.com/GPX/1/1 http://www.topografix.com/GPX/1/1/gpx.xsd" version="1.1" creator="VisuGPX - https://www.visugpx.com">
  <metadata>
    <name>Frechencourt_13 km</name>
    <desc><![CDATA[Walkmeter Randonnée 29 sept. 2013 08:59:25]]></desc>
  </metadata>
  <trk>
    <name><![CDATA[ch en s.  Frechencourt]]></name>
    <trkseg>
      <trkpt lat="49.96374" lon="2.43991">
        <ele>31</ele>
        <time>2013-09-29T06:59:25Z</time>
      </trkpt>
      <trkpt lat="49.96367" lon="2.43994">
        <ele>32.5</ele>
        <time>2013-09-29T06:59:40Z</time>
      </trkpt>
      <trkpt lat="49.96367" lon="2.43994">
        <ele>32.5</ele>
        <time>2013-09-29T07:08:47Z</time>
      </trkpt>
      <trkpt lat="49.96354" lon="2.43973">
        <ele>33.6</ele>
        <time>2013-09-29T07:08:50Z</time>
      </trkpt>
      <trkpt lat="49.96354" lon="2.43973">
        <ele>33.6</ele>
        <time>2013-09-29T07:09:27Z</time>
      </trkpt>
      <trkpt lat="49.9635" lon="2.43955">
        <ele>33.8</ele>
        <time>2013-09-29T07:09:35Z</time>
      </trkpt>
      <trkpt lat="49.9635" lon="2.43933">
        <ele>33.9</ele>
        <time>2013-09-29T07:09:45Z</time>
      </trkpt>
      <trkpt lat="49.96354" lon="2.43912">
        <ele>34.1</ele>
        <time>2013-09-29T07:09:53Z</time>
      </trkpt>
      <trkpt lat="49.96352" lon="2.4389">
        <ele>34.3</ele>
        <time>2013-09-29T07:10:04Z</time>
      </trkpt>
      <trkpt lat="49.9635" lon="2.43868">
        <ele>34.5</ele>
        <time>2013-09-29T07:10:16Z</time>
      </trkpt>
      <trkpt lat="49.96352" lon="2.43847">
        <ele>34.7</ele>
        <time>2013-09-29T07:10:27Z</time>
      </trkpt>
      <trkpt lat="49.96349" lon="2.43825">
        <ele>35.2</ele>
        <time>2013-09-29T07:10:56Z</time>
      </trkpt>
      <trkpt lat="49.96338" lon="2.43811">
        <ele>35.4</ele>
        <time>2013-09-29T07:11:06Z</time>
      </trkpt>
      <trkpt lat="49.96326" lon="2.438">
        <ele>35.7</ele>
        <time>2013-09-29T07:11:27Z</time>
      </trkpt>
      <trkpt lat="49.96316" lon="2.43783">
        <ele>35.9</ele>
        <time>2013-09-29T07:11:37Z</time>
      </trkpt>
      <trkpt lat="49.96304" lon="2.4377">
        <ele>38.2</ele>
        <time>2013-09-29T07:11:54Z</time>
      </trkpt>
      <trkpt lat="49.96291" lon="2.4376">
        <ele>42.5</ele>
        <time>2013-09-29T07:12:04Z</time>
      </trkpt>
      <trkpt lat="49.96278" lon="2.43749">
        <ele>41</ele>
        <time>2013-09-29T07:12:15Z</time>
      </trkpt>
      <trkpt lat="49.96265" lon="2.43741">
        <ele>44.2</ele>
        <time>2013-09-29T07:12:22Z</time>
      </trkpt>
      <trkpt lat="49.96253" lon="2.43731">
        <ele>47.7</ele>
        <time>2013-09-29T07:12:38Z</time>
      </trkpt>
      <trkpt lat="49.96238" lon="2.43725">
        <ele>49</ele>
        <time>2013-09-29T07:12:49Z</time>
      </trkpt>
      <trkpt lat="49.96225" lon="2.43722">
        <ele>49</ele>
        <time>2013-09-29T07:12:59Z</time>
      </trkpt>
      <trkpt lat="49.96212" lon="2.43712">
        <ele>48.5</ele>
        <time>2013-09-29T07:13:06Z</time>
      </trkpt>
      <trkpt lat="49.96203" lon="2.43697">
        <ele>44.4</ele>
        <time>2013-09-29T07:13:24Z</time>
      </trkpt>
      <trkpt lat="49.96193" lon="2.43683">
        <ele>42</ele>
        <time>2013-09-29T07:13:38Z</time>
      </trkpt>
      <trkpt lat="49.96177" lon="2.43665">
        <ele>40.6</ele>
        <time>2013-09-29T07:13:53Z</time>
      </trkpt>
      <trkpt lat="49.96177" lon="2.43665">
        <ele>40.6</ele>
        <time>2013-09-29T07:14:57Z</time>
      </trkpt>
      <trkpt lat="49.96169" lon="2.43663">
        <ele>41.9</ele>
        <time>2013-09-29T07:15:00Z</time>
      </trkpt>
      <trkpt lat="49.96156" lon="2.43668">
        <ele>42.8</ele>
        <time>2013-09-29T07:15:09Z</time>
      </trkpt>
      <trkpt lat="49.96171" lon="2.43666">
        <ele>38.4</ele>
        <time>2013-09-29T07:15:21Z</time>
      </trkpt>
      <trkpt lat="49.96171" lon="2.43666">
        <ele>38.4</ele>
        <time>2013-09-29T07:16:44Z</time>
      </trkpt>
      <trkpt lat="49.96193" lon="2.43656">
        <ele>33.6</ele>
        <time>2013-09-29T07:16:52Z</time>
      </trkpt>
      <trkpt lat="49.96199" lon="2.43677">
        <ele>33.3</ele>
        <time>2013-09-29T07:16:58Z</time>
      </trkpt>
      <trkpt lat="49.96196" lon="2.43699">
        <ele>33.1</ele>
        <time>2013-09-29T07:17:04Z</time>
      </trkpt>
      <trkpt lat="49.96197" lon="2.43712">
        <ele>34.7</ele>
        <time>2013-09-29T07:17:17Z</time>
      </trkpt>
      <trkpt lat="49.96211" lon="2.43706">
        <ele>36.7</ele>
        <time>2013-09-29T07:17:26Z</time>
      </trkpt>
      <trkpt lat="49.9622" lon="2.43724">
        <ele>39.5</ele>
        <time>2013-09-29T07:17:36Z</time>
      </trkpt>
      <trkpt lat="49.96232" lon="2.43736">
        <ele>42.3</ele>
        <time>2013-09-29T07:17:49Z</time>
      </trkpt>
      <trkpt lat="49.96242" lon="2.43751">
        <ele>43.2</ele>
        <time>2013-09-29T07:17:57Z</time>
      </trkpt>
      <trkpt lat="49.96255" lon="2.43757">
        <ele>43.6</ele>
        <time>2013-09-29T07:18:09Z</time>
      </trkpt>
      <trkpt lat="49.96269" lon="2.43763">
        <ele>44</ele>
        <time>2013-09-29T07:18:21Z</time>
      </trkpt>
      <trkpt lat="49.96282" lon="2.43771">
        <ele>43.2</ele>
        <time>2013-09-29T07:18:31Z</time>
      </trkpt>
      <trkpt lat="49.96293" lon="2.43785">
        <ele>45.6</ele>
        <time>2013-09-29T07:18:41Z</time>
      </trkpt>
      <trkpt lat="49.96306" lon="2.43794">
        <ele>47.8</ele>
        <time>2013-09-29T07:18:52Z</time>
      </trkpt>
      <trkpt lat="49.96318" lon="2.43802">
        <ele>48</ele>
        <time>2013-09-29T07:19:05Z</time>
      </trkpt>
      <trkpt lat="49.96331" lon="2.43811">
        <ele>44.2</ele>
        <time>2013-09-29T07:19:18Z</time>
      </trkpt>
      <trkpt lat="49.96344" lon="2.43819">
        <ele>41.6</ele>
        <time>2013-09-29T07:19:38Z</time>
      </trkpt>
      <trkpt lat="49.96349" lon="2.43841">
        <ele>40.8</ele>
        <time>2013-09-29T07:19:47Z</time>
      </trkpt>
      <trkpt lat="49.96355" lon="2.43861">
        <ele>42.3</ele>
        <time>2013-09-29T07:20:02Z</time>
      </trkpt>
      <trkpt lat="49.96359" lon="2.43883">
        <ele>45.2</ele>
        <time>2013-09-29T07:20:10Z</time>
      </trkpt>
      <trkpt lat="49.96351" lon="2.4391">
        <ele>47.4</ele>
        <time>2013-09-29T07:20:17Z</time>
      </trkpt>
      <trkpt lat="49.96353" lon="2.43932">
        <ele>47.9</ele>
        <time>2013-09-29T07:20:29Z</time>
      </trkpt>
      <trkpt lat="49.96361" lon="2.43951">
        <ele>46</ele>
        <time>2013-09-29T07:20:39Z</time>
      </trkpt>
      <trkpt lat="49.96369" lon="2.4397">
        <ele>50.8</ele>
        <time>2013-09-29T07:20:52Z</time>
      </trkpt>
      <trkpt lat="49.96375" lon="2.43987">
        <ele>48</ele>
        <time>2013-09-29T07:21:01Z</time>
      </trkpt>
      <trkpt lat="49.96383" lon="2.44005">
        <ele>50.5</ele>
        <time>2013-09-29T07:21:28Z</time>
      </trkpt>
      <trkpt lat="49.96388" lon="2.44013">
        <ele>49.7</ele>
        <time>2013-09-29T07:21:36Z</time>
      </trkpt>
      <trkpt lat="49.96402" lon="2.44007">
        <ele>48.8</ele>
        <time>2013-09-29T07:21:44Z</time>
      </trkpt>
      <trkpt lat="49.96417" lon="2.44002">
        <ele>48</ele>
        <time>2013-09-29T07:21:52Z</time>
      </trkpt>
      <trkpt lat="49.96431" lon="2.44">
        <ele>47.1</ele>
        <time>2013-09-29T07:22:01Z</time>
      </trkpt>
      <trkpt lat="49.96445" lon="2.43994">
        <ele>47.9</ele>
        <time>2013-09-29T07:22:15Z</time>
      </trkpt>
      <trkpt lat="49.96459" lon="2.43991">
        <ele>48.7</ele>
        <time>2013-09-29T07:22:26Z</time>
      </trkpt>
      <trkpt lat="49.96474" lon="2.43988">
        <ele>49.7</ele>
        <time>2013-09-29T07:22:40Z</time>
      </trkpt>
      <trkpt lat="49.96488" lon="2.43987">
        <ele>50.6</ele>
        <time>2013-09-29T07:22:52Z</time>
      </trkpt>
      <trkpt lat="49.96494" lon="2.43985">
        <ele>51</ele>
        <time>2013-09-29T07:22:58Z</time>
      </trkpt>
      <trkpt lat="49.96498" lon="2.44005">
        <ele>57.6</ele>
        <time>2013-09-29T07:23:09Z</time>
      </trkpt>
      <trkpt lat="49.96506" lon="2.44024">
        <ele>59.3</ele>
        <time>2013-09-29T07:23:20Z</time>
      </trkpt>
      <trkpt lat="49.96507" lon="2.44046">
        <ele>59.8</ele>
        <time>2013-09-29T07:23:29Z</time>
      </trkpt>
      <trkpt lat="49.96506" lon="2.44069">
        <ele>61.8</ele>
        <time>2013-09-29T07:23:41Z</time>
      </trkpt>
      <trkpt lat="49.96504" lon="2.4409">
        <ele>64</ele>
        <time>2013-09-29T07:23:50Z</time>
      </trkpt>
      <trkpt lat="49.96509" lon="2.44112">
        <ele>63</ele>
        <time>2013-09-29T07:24:00Z</time>
      </trkpt>
      <trkpt lat="49.96511" lon="2.44137">
        <ele>57.8</ele>
        <time>2013-09-29T07:24:11Z</time>
      </trkpt>
      <trkpt lat="49.96511" lon="2.44159">
        <ele>55.8</ele>
        <time>2013-09-29T07:24:16Z</time>
      </trkpt>
      <trkpt lat="49.96515" lon="2.44181">
        <ele>54.1</ele>
        <time>2013-09-29T07:24:29Z</time>
      </trkpt>
      <trkpt lat="49.9652" lon="2.44202">
        <ele>53</ele>
        <time>2013-09-29T07:24:37Z</time>
      </trkpt>
      <trkpt lat="49.96525" lon="2.44223">
        <ele>55.1</ele>
        <time>2013-09-29T07:24:57Z</time>
      </trkpt>
      <trkpt lat="49.96527" lon="2.44245">
        <ele>55.6</ele>
        <time>2013-09-29T07:25:09Z</time>
      </trkpt>
      <trkpt lat="49.96527" lon="2.44267">
        <ele>54</ele>
        <time>2013-09-29T07:25:24Z</time>
      </trkpt>
      <trkpt lat="49.96529" lon="2.4429">
        <ele>53</ele>
        <time>2013-09-29T07:25:33Z</time>
      </trkpt>
      <trkpt lat="49.9653" lon="2.44311">
        <ele>51.7</ele>
        <time>2013-09-29T07:25:43Z</time>
      </trkpt>
      <trkpt lat="49.96532" lon="2.44332">
        <ele>49.8</ele>
        <time>2013-09-29T07:25:58Z</time>
      </trkpt>
      <trkpt lat="49.96531" lon="2.44354">
        <ele>49.2</ele>
        <time>2013-09-29T07:26:06Z</time>
      </trkpt>
      <trkpt lat="49.9653" lon="2.44375">
        <ele>48.6</ele>
        <time>2013-09-29T07:26:12Z</time>
      </trkpt>
      <trkpt lat="49.96532" lon="2.44397">
        <ele>48.9</ele>
        <time>2013-09-29T07:26:22Z</time>
      </trkpt>
      <trkpt lat="49.96535" lon="2.44419">
        <ele>49.7</ele>
        <time>2013-09-29T07:26:34Z</time>
      </trkpt>
      <trkpt lat="49.96535" lon="2.44441">
        <ele>47.3</ele>
        <time>2013-09-29T07:26:44Z</time>
      </trkpt>
      <trkpt lat="49.96537" lon="2.44464">
        <ele>47.5</ele>
        <time>2013-09-29T07:26:54Z</time>
      </trkpt>
      <trkpt lat="49.96538" lon="2.44487">
        <ele>48.1</ele>
        <time>2013-09-29T07:27:04Z</time>
      </trkpt>
      <trkpt lat="49.96539" lon="2.44508">
        <ele>48.6</ele>
        <time>2013-09-29T07:27:11Z</time>
      </trkpt>
      <trkpt lat="49.9654" lon="2.44529">
        <ele>49.3</ele>
        <time>2013-09-29T07:27:23Z</time>
      </trkpt>
      <trkpt lat="49.96546" lon="2.44549">
        <ele>50</ele>
        <time>2013-09-29T07:27:35Z</time>
      </trkpt>
      <trkpt lat="49.96545" lon="2.44572">
        <ele>54.4</ele>
        <time>2013-09-29T07:27:46Z</time>
      </trkpt>
      <trkpt lat="49.96541" lon="2.44592">
        <ele>57.6</ele>
        <time>2013-09-29T07:27:55Z</time>
      </trkpt>
      <trkpt lat="49.96538" lon="2.44593">
        <ele>55.7</ele>
        <time>2013-09-29T07:28:01Z</time>
      </trkpt>
      <trkpt lat="49.9654" lon="2.44615">
        <ele>52.7</ele>
        <time>2013-09-29T07:28:10Z</time>
      </trkpt>
      <trkpt lat="49.96539" lon="2.44636">
        <ele>52</ele>
        <time>2013-09-29T07:28:18Z</time>
      </trkpt>
      <trkpt lat="49.96539" lon="2.44658">
        <ele>51.3</ele>
        <time>2013-09-29T07:28:26Z</time>
      </trkpt>
      <trkpt lat="49.96538" lon="2.44681">
        <ele>50.4</ele>
        <time>2013-09-29T07:28:36Z</time>
      </trkpt>
      <trkpt lat="49.96539" lon="2.44702">
        <ele>50.2</ele>
        <time>2013-09-29T07:28:45Z</time>
      </trkpt>
      <trkpt lat="49.96541" lon="2.44723">
        <ele>50.7</ele>
        <time>2013-09-29T07:28:56Z</time>
      </trkpt>
      <trkpt lat="49.96536" lon="2.44746">
        <ele>51.3</ele>
        <time>2013-09-29T07:29:07Z</time>
      </trkpt>
      <trkpt lat="49.96534" lon="2.44769">
        <ele>51.7</ele>
        <time>2013-09-29T07:29:16Z</time>
      </trkpt>
      <trkpt lat="49.96539" lon="2.44791">
        <ele>52.3</ele>
        <time>2013-09-29T07:29:28Z</time>
      </trkpt>
      <trkpt lat="49.96541" lon="2.44812">
        <ele>52.8</ele>
        <time>2013-09-29T07:29:38Z</time>
      </trkpt>
      <trkpt lat="49.96542" lon="2.44832">
        <ele>53.2</ele>
        <time>2013-09-29T07:29:48Z</time>
      </trkpt>
      <trkpt lat="49.96542" lon="2.44856">
        <ele>53.7</ele>
        <time>2013-09-29T07:29:59Z</time>
      </trkpt>
      <trkpt lat="49.9654" lon="2.44878">
        <ele>54.2</ele>
        <time>2013-09-29T07:30:10Z</time>
      </trkpt>
      <trkpt lat="49.9654" lon="2.449">
        <ele>54.7</ele>
        <time>2013-09-29T07:30:20Z</time>
      </trkpt>
      <trkpt lat="49.9654" lon="2.44922">
        <ele>55</ele>
        <time>2013-09-29T07:30:28Z</time>
      </trkpt>
      <trkpt lat="49.96539" lon="2.44944">
        <ele>55.5</ele>
        <time>2013-09-29T07:30:38Z</time>
      </trkpt>
      <trkpt lat="49.96549" lon="2.4496">
        <ele>56</ele>
        <time>2013-09-29T07:30:48Z</time>
      </trkpt>
      <trkpt lat="49.96563" lon="2.44965">
        <ele>56.5</ele>
        <time>2013-09-29T07:30:59Z</time>
      </trkpt>
      <trkpt lat="49.96578" lon="2.44966">
        <ele>57</ele>
        <time>2013-09-29T07:31:11Z</time>
      </trkpt>
      <trkpt lat="49.96593" lon="2.44966">
        <ele>57.5</ele>
        <time>2013-09-29T07:31:22Z</time>
      </trkpt>
      <trkpt lat="49.96606" lon="2.44965">
        <ele>58</ele>
        <time>2013-09-29T07:31:33Z</time>
      </trkpt>
      <trkpt lat="49.96621" lon="2.44965">
        <ele>59.3</ele>
        <time>2013-09-29T07:31:44Z</time>
      </trkpt>
      <trkpt lat="49.96635" lon="2.44967">
        <ele>61.8</ele>
        <time>2013-09-29T07:31:54Z</time>
      </trkpt>
      <trkpt lat="49.96649" lon="2.44965">
        <ele>62.5</ele>
        <time>2013-09-29T07:32:06Z</time>
      </trkpt>
      <trkpt lat="49.96664" lon="2.44967">
        <ele>66.4</ele>
        <time>2013-09-29T07:32:17Z</time>
      </trkpt>
      <trkpt lat="49.96677" lon="2.44968">
        <ele>66.3</ele>
        <time>2013-09-29T07:32:24Z</time>
      </trkpt>
      <trkpt lat="49.96691" lon="2.4497">
        <ele>65.5</ele>
        <time>2013-09-29T07:32:31Z</time>
      </trkpt>
      <trkpt lat="49.96705" lon="2.44972">
        <ele>68</ele>
        <time>2013-09-29T07:32:41Z</time>
      </trkpt>
      <trkpt lat="49.9672" lon="2.44973">
        <ele>65</ele>
        <time>2013-09-29T07:32:52Z</time>
      </trkpt>
      <trkpt lat="49.96735" lon="2.44971">
        <ele>63.3</ele>
        <time>2013-09-29T07:33:05Z</time>
      </trkpt>
      <trkpt lat="49.96748" lon="2.44971">
        <ele>62.4</ele>
        <time>2013-09-29T07:33:12Z</time>
      </trkpt>
      <trkpt lat="49.96762" lon="2.44971">
        <ele>60.7</ele>
        <time>2013-09-29T07:33:25Z</time>
      </trkpt>
      <trkpt lat="49.96777" lon="2.44971">
        <ele>59</ele>
        <time>2013-09-29T07:33:38Z</time>
      </trkpt>
      <trkpt lat="49.9679" lon="2.44972">
        <ele>63.1</ele>
        <time>2013-09-29T07:33:50Z</time>
      </trkpt>
      <trkpt lat="49.96806" lon="2.44974">
        <ele>64.6</ele>
        <time>2013-09-29T07:33:58Z</time>
      </trkpt>
      <trkpt lat="49.9682" lon="2.4498">
        <ele>64.5</ele>
        <time>2013-09-29T07:34:08Z</time>
      </trkpt>
      <trkpt lat="49.96834" lon="2.44981">
        <ele>64</ele>
        <time>2013-09-29T07:34:15Z</time>
      </trkpt>
      <trkpt lat="49.96847" lon="2.44986">
        <ele>62.9</ele>
        <time>2013-09-29T07:34:31Z</time>
      </trkpt>
      <trkpt lat="49.9686" lon="2.44993">
        <ele>62.3</ele>
        <time>2013-09-29T07:34:40Z</time>
      </trkpt>
      <trkpt lat="49.96874" lon="2.44998">
        <ele>62.8</ele>
        <time>2013-09-29T07:34:52Z</time>
      </trkpt>
      <trkpt lat="49.96887" lon="2.45007">
        <ele>64.2</ele>
        <time>2013-09-29T07:35:05Z</time>
      </trkpt>
      <trkpt lat="49.969" lon="2.45016">
        <ele>64.5</ele>
        <time>2013-09-29T07:35:15Z</time>
      </trkpt>
      <trkpt lat="49.96915" lon="2.45019">
        <ele>61.9</ele>
        <time>2013-09-29T07:35:26Z</time>
      </trkpt>
      <trkpt lat="49.96926" lon="2.45031">
        <ele>59.8</ele>
        <time>2013-09-29T07:35:39Z</time>
      </trkpt>
      <trkpt lat="49.9694" lon="2.45039">
        <ele>57.1</ele>
        <time>2013-09-29T07:35:57Z</time>
      </trkpt>
      <trkpt lat="49.96954" lon="2.45043">
        <ele>55</ele>
        <time>2013-09-29T07:36:09Z</time>
      </trkpt>
      <trkpt lat="49.96967" lon="2.45052">
        <ele>55</ele>
        <time>2013-09-29T07:36:26Z</time>
      </trkpt>
      <trkpt lat="49.96979" lon="2.4506">
        <ele>56.5</ele>
        <time>2013-09-29T07:36:52Z</time>
      </trkpt>
      <trkpt lat="49.96993" lon="2.45068">
        <ele>59</ele>
        <time>2013-09-29T07:37:13Z</time>
      </trkpt>
      <trkpt lat="49.96999" lon="2.45064">
        <ele>60</ele>
        <time>2013-09-29T07:37:22Z</time>
      </trkpt>
      <trkpt lat="49.97011" lon="2.45071">
        <ele>59</ele>
        <time>2013-09-29T07:37:42Z</time>
      </trkpt>
      <trkpt lat="49.97024" lon="2.45079">
        <ele>57.1</ele>
        <time>2013-09-29T07:37:54Z</time>
      </trkpt>
      <trkpt lat="49.97038" lon="2.45087">
        <ele>58.8</ele>
        <time>2013-09-29T07:38:07Z</time>
      </trkpt>
      <trkpt lat="49.97052" lon="2.45094">
        <ele>58.8</ele>
        <time>2013-09-29T07:38:19Z</time>
      </trkpt>
      <trkpt lat="49.97065" lon="2.45101">
        <ele>53.8</ele>
        <time>2013-09-29T07:38:31Z</time>
      </trkpt>
      <trkpt lat="49.97079" lon="2.45105">
        <ele>54</ele>
        <time>2013-09-29T07:38:42Z</time>
      </trkpt>
      <trkpt lat="49.97093" lon="2.45102">
        <ele>55.3</ele>
        <time>2013-09-29T07:38:54Z</time>
      </trkpt>
      <trkpt lat="49.97107" lon="2.45106">
        <ele>53.9</ele>
        <time>2013-09-29T07:39:03Z</time>
      </trkpt>
      <trkpt lat="49.9712" lon="2.45097">
        <ele>52.5</ele>
        <time>2013-09-29T07:39:13Z</time>
      </trkpt>
      <trkpt lat="49.97132" lon="2.45086">
        <ele>51.1</ele>
        <time>2013-09-29T07:39:22Z</time>
      </trkpt>
      <trkpt lat="49.97145" lon="2.45081">
        <ele>49.4</ele>
        <time>2013-09-29T07:39:32Z</time>
      </trkpt>
      <trkpt lat="49.97159" lon="2.45077">
        <ele>49</ele>
        <time>2013-09-29T07:39:42Z</time>
      </trkpt>
      <trkpt lat="49.97173" lon="2.45072">
        <ele>49</ele>
        <time>2013-09-29T07:39:53Z</time>
      </trkpt>
      <trkpt lat="49.97187" lon="2.45066">
        <ele>49</ele>
        <time>2013-09-29T07:40:05Z</time>
      </trkpt>
      <trkpt lat="49.97201" lon="2.45061">
        <ele>49.7</ele>
        <time>2013-09-29T07:40:17Z</time>
      </trkpt>
      <trkpt lat="49.97216" lon="2.45058">
        <ele>53.6</ele>
        <time>2013-09-29T07:40:29Z</time>
      </trkpt>
      <trkpt lat="49.97229" lon="2.45051">
        <ele>53.7</ele>
        <time>2013-09-29T07:40:39Z</time>
      </trkpt>
      <trkpt lat="49.97242" lon="2.45044">
        <ele>53.2</ele>
        <time>2013-09-29T07:40:53Z</time>
      </trkpt>
      <trkpt lat="49.97256" lon="2.45041">
        <ele>52.7</ele>
        <time>2013-09-29T07:41:05Z</time>
      </trkpt>
      <trkpt lat="49.97271" lon="2.45036">
        <ele>52.3</ele>
        <time>2013-09-29T07:41:16Z</time>
      </trkpt>
      <trkpt lat="49.97284" lon="2.45034">
        <ele>51.9</ele>
        <time>2013-09-29T07:41:27Z</time>
      </trkpt>
      <trkpt lat="49.97298" lon="2.45034">
        <ele>51.6</ele>
        <time>2013-09-29T07:41:37Z</time>
      </trkpt>
      <trkpt lat="49.97313" lon="2.45036">
        <ele>51.1</ele>
        <time>2013-09-29T07:41:49Z</time>
      </trkpt>
      <trkpt lat="49.97326" lon="2.45038">
        <ele>54.7</ele>
        <time>2013-09-29T07:41:59Z</time>
      </trkpt>
      <trkpt lat="49.9734" lon="2.45035">
        <ele>50.7</ele>
        <time>2013-09-29T07:42:12Z</time>
      </trkpt>
      <trkpt lat="49.97354" lon="2.45033">
        <ele>49.3</ele>
        <time>2013-09-29T07:42:22Z</time>
      </trkpt>
      <trkpt lat="49.97369" lon="2.45028">
        <ele>47.7</ele>
        <time>2013-09-29T07:42:34Z</time>
      </trkpt>
      <trkpt lat="49.97385" lon="2.45028">
        <ele>46.8</ele>
        <time>2013-09-29T07:42:42Z</time>
      </trkpt>
      <trkpt lat="49.97399" lon="2.45023">
        <ele>43.4</ele>
        <time>2013-09-29T07:43:01Z</time>
      </trkpt>
      <trkpt lat="49.97411" lon="2.45012">
        <ele>41.7</ele>
        <time>2013-09-29T07:43:15Z</time>
      </trkpt>
      <trkpt lat="49.97424" lon="2.45005">
        <ele>42.5</ele>
        <time>2013-09-29T07:43:25Z</time>
      </trkpt>
      <trkpt lat="49.97438" lon="2.45004">
        <ele>43.6</ele>
        <time>2013-09-29T07:43:36Z</time>
      </trkpt>
      <trkpt lat="49.97453" lon="2.45005">
        <ele>44.3</ele>
        <time>2013-09-29T07:43:44Z</time>
      </trkpt>
      <trkpt lat="49.97467" lon="2.45001">
        <ele>45.2</ele>
        <time>2013-09-29T07:43:53Z</time>
      </trkpt>
      <trkpt lat="49.97481" lon="2.44999">
        <ele>46</ele>
        <time>2013-09-29T07:44:01Z</time>
      </trkpt>
      <trkpt lat="49.97495" lon="2.44995">
        <ele>48.5</ele>
        <time>2013-09-29T07:44:10Z</time>
      </trkpt>
      <trkpt lat="49.97509" lon="2.44991">
        <ele>46.6</ele>
        <time>2013-09-29T07:44:27Z</time>
      </trkpt>
      <trkpt lat="49.97523" lon="2.44985">
        <ele>48.6</ele>
        <time>2013-09-29T07:44:41Z</time>
      </trkpt>
      <trkpt lat="49.97538" lon="2.44982">
        <ele>49.7</ele>
        <time>2013-09-29T07:44:49Z</time>
      </trkpt>
      <trkpt lat="49.97552" lon="2.44977">
        <ele>45</ele>
        <time>2013-09-29T07:44:57Z</time>
      </trkpt>
      <trkpt lat="49.97565" lon="2.44973">
        <ele>46.3</ele>
        <time>2013-09-29T07:45:05Z</time>
      </trkpt>
      <trkpt lat="49.97579" lon="2.44966">
        <ele>48</ele>
        <time>2013-09-29T07:45:15Z</time>
      </trkpt>
      <trkpt lat="49.97592" lon="2.44961">
        <ele>54</ele>
        <time>2013-09-29T07:45:27Z</time>
      </trkpt>
      <trkpt lat="49.97606" lon="2.44961">
        <ele>51.9</ele>
        <time>2013-09-29T07:45:38Z</time>
      </trkpt>
      <trkpt lat="49.9762" lon="2.44968">
        <ele>49.7</ele>
        <time>2013-09-29T07:45:50Z</time>
      </trkpt>
      <trkpt lat="49.97632" lon="2.44978">
        <ele>47.4</ele>
        <time>2013-09-29T07:46:03Z</time>
      </trkpt>
      <trkpt lat="49.97644" lon="2.44993">
        <ele>48.5</ele>
        <time>2013-09-29T07:46:13Z</time>
      </trkpt>
      <trkpt lat="49.97652" lon="2.45011">
        <ele>49.3</ele>
        <time>2013-09-29T07:46:25Z</time>
      </trkpt>
      <trkpt lat="49.97651" lon="2.45029">
        <ele>48</ele>
        <time>2013-09-29T07:46:38Z</time>
      </trkpt>
      <trkpt lat="49.9766" lon="2.45046">
        <ele>47</ele>
        <time>2013-09-29T07:46:54Z</time>
      </trkpt>
      <trkpt lat="49.97663" lon="2.45067">
        <ele>46.3</ele>
        <time>2013-09-29T07:47:05Z</time>
      </trkpt>
      <trkpt lat="49.97667" lon="2.45088">
        <ele>45.6</ele>
        <time>2013-09-29T07:47:17Z</time>
      </trkpt>
      <trkpt lat="49.97675" lon="2.45106">
        <ele>45.3</ele>
        <time>2013-09-29T07:47:29Z</time>
      </trkpt>
      <trkpt lat="49.97679" lon="2.45126">
        <ele>46.6</ele>
        <time>2013-09-29T07:47:41Z</time>
      </trkpt>
      <trkpt lat="49.97679" lon="2.45148">
        <ele>47.8</ele>
        <time>2013-09-29T07:47:52Z</time>
      </trkpt>
      <trkpt lat="49.97689" lon="2.45162">
        <ele>51.6</ele>
        <time>2013-09-29T07:48:02Z</time>
      </trkpt>
      <trkpt lat="49.97697" lon="2.45181">
        <ele>51.9</ele>
        <time>2013-09-29T07:48:12Z</time>
      </trkpt>
      <trkpt lat="49.97706" lon="2.45199">
        <ele>49.7</ele>
        <time>2013-09-29T07:48:27Z</time>
      </trkpt>
      <trkpt lat="49.97719" lon="2.45206">
        <ele>48.4</ele>
        <time>2013-09-29T07:48:35Z</time>
      </trkpt>
      <trkpt lat="49.97733" lon="2.4521">
        <ele>49</ele>
        <time>2013-09-29T07:48:47Z</time>
      </trkpt>
      <trkpt lat="49.97747" lon="2.45212">
        <ele>49.8</ele>
        <time>2013-09-29T07:48:57Z</time>
      </trkpt>
      <trkpt lat="49.97759" lon="2.45225">
        <ele>51.9</ele>
        <time>2013-09-29T07:49:09Z</time>
      </trkpt>
      <trkpt lat="49.97771" lon="2.45235">
        <ele>51.2</ele>
        <time>2013-09-29T07:49:19Z</time>
      </trkpt>
      <trkpt lat="49.97786" lon="2.4524">
        <ele>50.5</ele>
        <time>2013-09-29T07:49:30Z</time>
      </trkpt>
      <trkpt lat="49.978" lon="2.45242">
        <ele>49.4</ele>
        <time>2013-09-29T07:49:46Z</time>
      </trkpt>
      <trkpt lat="49.97813" lon="2.45247">
        <ele>52.6</ele>
        <time>2013-09-29T07:50:02Z</time>
      </trkpt>
      <trkpt lat="49.97825" lon="2.4526">
        <ele>57.5</ele>
        <time>2013-09-29T07:50:16Z</time>
      </trkpt>
      <trkpt lat="49.97836" lon="2.45275">
        <ele>59.5</ele>
        <time>2013-09-29T07:50:25Z</time>
      </trkpt>
      <trkpt lat="49.97832" lon="2.45295">
        <ele>62</ele>
        <time>2013-09-29T07:50:36Z</time>
      </trkpt>
      <trkpt lat="49.9783" lon="2.45317">
        <ele>61.7</ele>
        <time>2013-09-29T07:50:47Z</time>
      </trkpt>
      <trkpt lat="49.97829" lon="2.45338">
        <ele>61.5</ele>
        <time>2013-09-29T07:50:58Z</time>
      </trkpt>
      <trkpt lat="49.97826" lon="2.4536">
        <ele>61.2</ele>
        <time>2013-09-29T07:51:09Z</time>
      </trkpt>
      <trkpt lat="49.97819" lon="2.45382">
        <ele>60.9</ele>
        <time>2013-09-29T07:51:18Z</time>
      </trkpt>
      <trkpt lat="49.97811" lon="2.45399">
        <ele>60.4</ele>
        <time>2013-09-29T07:51:28Z</time>
      </trkpt>
      <trkpt lat="49.97806" lon="2.4542">
        <ele>59.9</ele>
        <time>2013-09-29T07:51:39Z</time>
      </trkpt>
      <trkpt lat="49.97805" lon="2.45443">
        <ele>59.4</ele>
        <time>2013-09-29T07:51:50Z</time>
      </trkpt>
      <trkpt lat="49.97802" lon="2.45466">
        <ele>58.9</ele>
        <time>2013-09-29T07:52:01Z</time>
      </trkpt>
      <trkpt lat="49.97801" lon="2.45487">
        <ele>58.3</ele>
        <time>2013-09-29T07:52:14Z</time>
      </trkpt>
      <trkpt lat="49.97801" lon="2.45509">
        <ele>59.3</ele>
        <time>2013-09-29T07:52:27Z</time>
      </trkpt>
      <trkpt lat="49.97797" lon="2.45529">
        <ele>62</ele>
        <time>2013-09-29T07:52:39Z</time>
      </trkpt>
      <trkpt lat="49.97791" lon="2.4555">
        <ele>63.8</ele>
        <time>2013-09-29T07:52:47Z</time>
      </trkpt>
      <trkpt lat="49.97789" lon="2.45573">
        <ele>64.2</ele>
        <time>2013-09-29T07:52:56Z</time>
      </trkpt>
      <trkpt lat="49.97786" lon="2.45593">
        <ele>64.4</ele>
        <time>2013-09-29T07:53:05Z</time>
      </trkpt>
      <trkpt lat="49.97784" lon="2.45616">
        <ele>64.6</ele>
        <time>2013-09-29T07:53:14Z</time>
      </trkpt>
      <trkpt lat="49.97781" lon="2.45637">
        <ele>64.8</ele>
        <time>2013-09-29T07:53:24Z</time>
      </trkpt>
      <trkpt lat="49.97781" lon="2.4566">
        <ele>65.2</ele>
        <time>2013-09-29T07:53:38Z</time>
      </trkpt>
      <trkpt lat="49.9778" lon="2.45681">
        <ele>65.4</ele>
        <time>2013-09-29T07:53:48Z</time>
      </trkpt>
      <trkpt lat="49.97777" lon="2.45703">
        <ele>65.6</ele>
        <time>2013-09-29T07:53:58Z</time>
      </trkpt>
      <trkpt lat="49.97774" lon="2.45724">
        <ele>66</ele>
        <time>2013-09-29T07:54:12Z</time>
      </trkpt>
      <trkpt lat="49.97769" lon="2.45745">
        <ele>66.3</ele>
        <time>2013-09-29T07:54:26Z</time>
      </trkpt>
      <trkpt lat="49.97774" lon="2.45768">
        <ele>66.5</ele>
        <time>2013-09-29T07:54:33Z</time>
      </trkpt>
      <trkpt lat="49.97774" lon="2.45777">
        <ele>66.6</ele>
        <time>2013-09-29T07:54:40Z</time>
      </trkpt>
      <trkpt lat="49.97767" lon="2.45795">
        <ele>66.9</ele>
        <time>2013-09-29T07:54:54Z</time>
      </trkpt>
      <trkpt lat="49.97763" lon="2.45816">
        <ele>67.2</ele>
        <time>2013-09-29T07:55:04Z</time>
      </trkpt>
      <trkpt lat="49.97758" lon="2.45838">
        <ele>67.4</ele>
        <time>2013-09-29T07:55:13Z</time>
      </trkpt>
      <trkpt lat="49.97758" lon="2.4586">
        <ele>67.6</ele>
        <time>2013-09-29T07:55:22Z</time>
      </trkpt>
      <trkpt lat="49.97757" lon="2.45881">
        <ele>67.9</ele>
        <time>2013-09-29T07:55:36Z</time>
      </trkpt>
      <trkpt lat="49.97756" lon="2.45903">
        <ele>68.3</ele>
        <time>2013-09-29T07:55:52Z</time>
      </trkpt>
      <trkpt lat="49.97756" lon="2.45924">
        <ele>68.7</ele>
        <time>2013-09-29T07:56:08Z</time>
      </trkpt>
      <trkpt lat="49.97754" lon="2.45946">
        <ele>68.9</ele>
        <time>2013-09-29T07:56:18Z</time>
      </trkpt>
      <trkpt lat="49.97755" lon="2.45969">
        <ele>69.1</ele>
        <time>2013-09-29T07:56:24Z</time>
      </trkpt>
      <trkpt lat="49.97756" lon="2.45992">
        <ele>69.9</ele>
        <time>2013-09-29T07:56:35Z</time>
      </trkpt>
      <trkpt lat="49.97756" lon="2.46013">
        <ele>70.6</ele>
        <time>2013-09-29T07:56:44Z</time>
      </trkpt>
      <trkpt lat="49.97757" lon="2.46035">
        <ele>71</ele>
        <time>2013-09-29T07:56:56Z</time>
      </trkpt>
      <trkpt lat="49.97761" lon="2.46057">
        <ele>72.9</ele>
        <time>2013-09-29T07:57:11Z</time>
      </trkpt>
      <trkpt lat="49.97766" lon="2.46077">
        <ele>71.3</ele>
        <time>2013-09-29T07:57:23Z</time>
      </trkpt>
      <trkpt lat="49.97769" lon="2.46097">
        <ele>70.9</ele>
        <time>2013-09-29T07:57:38Z</time>
      </trkpt>
      <trkpt lat="49.97775" lon="2.46116">
        <ele>71.5</ele>
        <time>2013-09-29T07:57:47Z</time>
      </trkpt>
      <trkpt lat="49.97779" lon="2.46137">
        <ele>69.6</ele>
        <time>2013-09-29T07:57:58Z</time>
      </trkpt>
      <trkpt lat="49.97783" lon="2.46157">
        <ele>68.4</ele>
        <time>2013-09-29T07:58:08Z</time>
      </trkpt>
      <trkpt lat="49.97787" lon="2.46178">
        <ele>72.5</ele>
        <time>2013-09-29T07:58:19Z</time>
      </trkpt>
      <trkpt lat="49.97793" lon="2.46197">
        <ele>77.1</ele>
        <time>2013-09-29T07:58:30Z</time>
      </trkpt>
      <trkpt lat="49.97796" lon="2.46202">
        <ele>77.7</ele>
        <time>2013-09-29T07:58:34Z</time>
      </trkpt>
      <trkpt lat="49.97791" lon="2.46202">
        <ele>78.4</ele>
        <time>2013-09-29T07:58:39Z</time>
      </trkpt>
      <trkpt lat="49.97799" lon="2.46222">
        <ele>79.6</ele>
        <time>2013-09-29T07:58:47Z</time>
      </trkpt>
      <trkpt lat="49.97807" lon="2.46239">
        <ele>81.7</ele>
        <time>2013-09-29T07:59:00Z</time>
      </trkpt>
      <trkpt lat="49.97813" lon="2.4626">
        <ele>83</ele>
        <time>2013-09-29T07:59:11Z</time>
      </trkpt>
      <trkpt lat="49.97817" lon="2.46281">
        <ele>83</ele>
        <time>2013-09-29T07:59:22Z</time>
      </trkpt>
      <trkpt lat="49.97823" lon="2.46301">
        <ele>83.3</ele>
        <time>2013-09-29T07:59:33Z</time>
      </trkpt>
      <trkpt lat="49.97828" lon="2.46322">
        <ele>84.6</ele>
        <time>2013-09-29T07:59:45Z</time>
      </trkpt>
      <trkpt lat="49.97834" lon="2.46342">
        <ele>86.3</ele>
        <time>2013-09-29T08:00:00Z</time>
      </trkpt>
      <trkpt lat="49.97841" lon="2.46361">
        <ele>88.7</ele>
        <time>2013-09-29T08:00:12Z</time>
      </trkpt>
      <trkpt lat="49.97844" lon="2.46384">
        <ele>87</ele>
        <time>2013-09-29T08:00:25Z</time>
      </trkpt>
      <trkpt lat="49.97849" lon="2.46404">
        <ele>86.5</ele>
        <time>2013-09-29T08:00:35Z</time>
      </trkpt>
      <trkpt lat="49.97854" lon="2.46425">
        <ele>89</ele>
        <time>2013-09-29T08:00:50Z</time>
      </trkpt>
      <trkpt lat="49.97859" lon="2.46445">
        <ele>90.2</ele>
        <time>2013-09-29T08:01:00Z</time>
      </trkpt>
      <trkpt lat="49.97862" lon="2.46467">
        <ele>91.1</ele>
        <time>2013-09-29T08:01:14Z</time>
      </trkpt>
      <trkpt lat="49.97868" lon="2.46488">
        <ele>91.8</ele>
        <time>2013-09-29T08:01:25Z</time>
      </trkpt>
      <trkpt lat="49.97873" lon="2.4651">
        <ele>92.4</ele>
        <time>2013-09-29T08:01:35Z</time>
      </trkpt>
      <trkpt lat="49.97879" lon="2.4653">
        <ele>90.4</ele>
        <time>2013-09-29T08:01:56Z</time>
      </trkpt>
      <trkpt lat="49.97885" lon="2.46551">
        <ele>94.4</ele>
        <time>2013-09-29T08:02:09Z</time>
      </trkpt>
      <trkpt lat="49.97888" lon="2.46571">
        <ele>95.7</ele>
        <time>2013-09-29T08:02:21Z</time>
      </trkpt>
      <trkpt lat="49.97893" lon="2.46592">
        <ele>96.9</ele>
        <time>2013-09-29T08:02:32Z</time>
      </trkpt>
      <trkpt lat="49.97896" lon="2.46613">
        <ele>96.6</ele>
        <time>2013-09-29T08:02:45Z</time>
      </trkpt>
      <trkpt lat="49.97899" lon="2.46634">
        <ele>96.2</ele>
        <time>2013-09-29T08:02:58Z</time>
      </trkpt>
      <trkpt lat="49.97901" lon="2.46655">
        <ele>95.9</ele>
        <time>2013-09-29T08:03:09Z</time>
      </trkpt>
      <trkpt lat="49.97908" lon="2.46673">
        <ele>95.5</ele>
        <time>2013-09-29T08:03:22Z</time>
      </trkpt>
      <trkpt lat="49.97911" lon="2.46695">
        <ele>95.1</ele>
        <time>2013-09-29T08:03:32Z</time>
      </trkpt>
      <trkpt lat="49.97915" lon="2.46716">
        <ele>94.8</ele>
        <time>2013-09-29T08:03:43Z</time>
      </trkpt>
      <trkpt lat="49.9792" lon="2.46737">
        <ele>94.2</ele>
        <time>2013-09-29T08:04:03Z</time>
      </trkpt>
      <trkpt lat="49.97924" lon="2.46759">
        <ele>93.4</ele>
        <time>2013-09-29T08:04:16Z</time>
      </trkpt>
      <trkpt lat="49.97931" lon="2.46777">
        <ele>92.4</ele>
        <time>2013-09-29T08:04:29Z</time>
      </trkpt>
      <trkpt lat="49.97934" lon="2.46798">
        <ele>91.4</ele>
        <time>2013-09-29T08:04:42Z</time>
      </trkpt>
      <trkpt lat="49.97938" lon="2.46819">
        <ele>89.7</ele>
        <time>2013-09-29T08:04:55Z</time>
      </trkpt>
      <trkpt lat="49.97946" lon="2.46839">
        <ele>88.3</ele>
        <time>2013-09-29T08:05:10Z</time>
      </trkpt>
      <trkpt lat="49.97952" lon="2.46859">
        <ele>86.7</ele>
        <time>2013-09-29T08:05:25Z</time>
      </trkpt>
      <trkpt lat="49.97959" lon="2.46876">
        <ele>85.3</ele>
        <time>2013-09-29T08:05:37Z</time>
      </trkpt>
      <trkpt lat="49.97967" lon="2.46895">
        <ele>87</ele>
        <time>2013-09-29T08:05:51Z</time>
      </trkpt>
      <trkpt lat="49.97976" lon="2.46911">
        <ele>91.1</ele>
        <time>2013-09-29T08:06:05Z</time>
      </trkpt>
      <trkpt lat="49.97981" lon="2.46933">
        <ele>93</ele>
        <time>2013-09-29T08:06:18Z</time>
      </trkpt>
      <trkpt lat="49.97988" lon="2.46951">
        <ele>93</ele>
        <time>2013-09-29T08:06:34Z</time>
      </trkpt>
      <trkpt lat="49.97993" lon="2.46972">
        <ele>93.5</ele>
        <time>2013-09-29T08:06:46Z</time>
      </trkpt>
      <trkpt lat="49.97998" lon="2.46992">
        <ele>94.2</ele>
        <time>2013-09-29T08:06:58Z</time>
      </trkpt>
      <trkpt lat="49.98002" lon="2.47013">
        <ele>94.8</ele>
        <time>2013-09-29T08:07:14Z</time>
      </trkpt>
      <trkpt lat="49.98008" lon="2.47032">
        <ele>95.2</ele>
        <time>2013-09-29T08:07:27Z</time>
      </trkpt>
      <trkpt lat="49.98014" lon="2.47052">
        <ele>95.7</ele>
        <time>2013-09-29T08:07:42Z</time>
      </trkpt>
      <trkpt lat="49.98019" lon="2.47072">
        <ele>96.2</ele>
        <time>2013-09-29T08:07:57Z</time>
      </trkpt>
      <trkpt lat="49.98023" lon="2.47093">
        <ele>96.5</ele>
        <time>2013-09-29T08:08:07Z</time>
      </trkpt>
      <trkpt lat="49.98025" lon="2.47114">
        <ele>96.9</ele>
        <time>2013-09-29T08:08:19Z</time>
      </trkpt>
      <trkpt lat="49.98024" lon="2.47136">
        <ele>98.4</ele>
        <time>2013-09-29T08:08:29Z</time>
      </trkpt>
      <trkpt lat="49.98026" lon="2.47157">
        <ele>100.3</ele>
        <time>2013-09-29T08:08:39Z</time>
      </trkpt>
      <trkpt lat="49.98029" lon="2.47178">
        <ele>103.1</ele>
        <time>2013-09-29T08:08:50Z</time>
      </trkpt>
      <trkpt lat="49.98034" lon="2.47199">
        <ele>104.6</ele>
        <time>2013-09-29T08:09:02Z</time>
      </trkpt>
      <trkpt lat="49.98036" lon="2.47221">
        <ele>105.9</ele>
        <time>2013-09-29T08:09:12Z</time>
      </trkpt>
      <trkpt lat="49.98038" lon="2.47242">
        <ele>107</ele>
        <time>2013-09-29T08:09:22Z</time>
      </trkpt>
      <trkpt lat="49.98039" lon="2.47253">
        <ele>106.1</ele>
        <time>2013-09-29T08:09:30Z</time>
      </trkpt>
      <trkpt lat="49.98039" lon="2.47253">
        <ele>106.1</ele>
        <time>2013-09-29T08:13:03Z</time>
      </trkpt>
      <trkpt lat="49.98041" lon="2.4726">
        <ele>105.3</ele>
        <time>2013-09-29T08:13:07Z</time>
      </trkpt>
      <trkpt lat="49.98047" lon="2.47279">
        <ele>107.4</ele>
        <time>2013-09-29T08:13:15Z</time>
      </trkpt>
      <trkpt lat="49.98052" lon="2.473">
        <ele>108.3</ele>
        <time>2013-09-29T08:13:26Z</time>
      </trkpt>
      <trkpt lat="49.98058" lon="2.47319">
        <ele>108.7</ele>
        <time>2013-09-29T08:13:36Z</time>
      </trkpt>
      <trkpt lat="49.9806" lon="2.47341">
        <ele>109.1</ele>
        <time>2013-09-29T08:13:47Z</time>
      </trkpt>
      <trkpt lat="49.98061" lon="2.47362">
        <ele>109.4</ele>
        <time>2013-09-29T08:13:57Z</time>
      </trkpt>
      <trkpt lat="49.98062" lon="2.47384">
        <ele>109.8</ele>
        <time>2013-09-29T08:14:08Z</time>
      </trkpt>
      <trkpt lat="49.98063" lon="2.47404">
        <ele>110.2</ele>
        <time>2013-09-29T08:14:18Z</time>
      </trkpt>
      <trkpt lat="49.98064" lon="2.47426">
        <ele>110.7</ele>
        <time>2013-09-29T08:14:31Z</time>
      </trkpt>
      <trkpt lat="49.98065" lon="2.47449">
        <ele>110.7</ele>
        <time>2013-09-29T08:14:44Z</time>
      </trkpt>
      <trkpt lat="49.98068" lon="2.4747">
        <ele>109.8</ele>
        <time>2013-09-29T08:14:56Z</time>
      </trkpt>
      <trkpt lat="49.98066" lon="2.47493">
        <ele>109</ele>
        <time>2013-09-29T08:15:07Z</time>
      </trkpt>
      <trkpt lat="49.98068" lon="2.47515">
        <ele>108.2</ele>
        <time>2013-09-29T08:15:17Z</time>
      </trkpt>
      <trkpt lat="49.98082" lon="2.47517">
        <ele>112.6</ele>
        <time>2013-09-29T08:15:31Z</time>
      </trkpt>
      <trkpt lat="49.98095" lon="2.47518">
        <ele>114.5</ele>
        <time>2013-09-29T08:15:41Z</time>
      </trkpt>
      <trkpt lat="49.98109" lon="2.47519">
        <ele>115.4</ele>
        <time>2013-09-29T08:15:51Z</time>
      </trkpt>
      <trkpt lat="49.98124" lon="2.47521">
        <ele>116.5</ele>
        <time>2013-09-29T08:16:03Z</time>
      </trkpt>
      <trkpt lat="49.98138" lon="2.47523">
        <ele>117.3</ele>
        <time>2013-09-29T08:16:12Z</time>
      </trkpt>
      <trkpt lat="49.98151" lon="2.47524">
        <ele>118.2</ele>
        <time>2013-09-29T08:16:21Z</time>
      </trkpt>
      <trkpt lat="49.98166" lon="2.47525">
        <ele>119</ele>
        <time>2013-09-29T08:16:31Z</time>
      </trkpt>
      <trkpt lat="49.9818" lon="2.47526">
        <ele>116.4</ele>
        <time>2013-09-29T08:16:44Z</time>
      </trkpt>
      <trkpt lat="49.98194" lon="2.47528">
        <ele>118.1</ele>
        <time>2013-09-29T08:16:54Z</time>
      </trkpt>
      <trkpt lat="49.98208" lon="2.4753">
        <ele>118.7</ele>
        <time>2013-09-29T08:17:04Z</time>
      </trkpt>
      <trkpt lat="49.98222" lon="2.47529">
        <ele>117.8</ele>
        <time>2013-09-29T08:17:16Z</time>
      </trkpt>
      <trkpt lat="49.98235" lon="2.47531">
        <ele>117.3</ele>
        <time>2013-09-29T08:17:24Z</time>
      </trkpt>
      <trkpt lat="49.9825" lon="2.47533">
        <ele>116.5</ele>
        <time>2013-09-29T08:17:35Z</time>
      </trkpt>
      <trkpt lat="49.98264" lon="2.47534">
        <ele>116.9</ele>
        <time>2013-09-29T08:17:47Z</time>
      </trkpt>
      <trkpt lat="49.98278" lon="2.47537">
        <ele>118.5</ele>
        <time>2013-09-29T08:17:56Z</time>
      </trkpt>
      <trkpt lat="49.98292" lon="2.47537">
        <ele>117.7</ele>
        <time>2013-09-29T08:18:06Z</time>
      </trkpt>
      <trkpt lat="49.98305" lon="2.47525">
        <ele>116.4</ele>
        <time>2013-09-29T08:18:18Z</time>
      </trkpt>
      <trkpt lat="49.98312" lon="2.47508">
        <ele>117.5</ele>
        <time>2013-09-29T08:18:26Z</time>
      </trkpt>
      <trkpt lat="49.98318" lon="2.47487">
        <ele>118.9</ele>
        <time>2013-09-29T08:18:36Z</time>
      </trkpt>
      <trkpt lat="49.98326" lon="2.47468">
        <ele>116.8</ele>
        <time>2013-09-29T08:18:45Z</time>
      </trkpt>
      <trkpt lat="49.98332" lon="2.47447">
        <ele>113.8</ele>
        <time>2013-09-29T08:18:56Z</time>
      </trkpt>
      <trkpt lat="49.98339" lon="2.47427">
        <ele>111.2</ele>
        <time>2013-09-29T08:19:04Z</time>
      </trkpt>
      <trkpt lat="49.98345" lon="2.47406">
        <ele>111</ele>
        <time>2013-09-29T08:19:16Z</time>
      </trkpt>
      <trkpt lat="49.98354" lon="2.4739">
        <ele>111.8</ele>
        <time>2013-09-29T08:19:25Z</time>
      </trkpt>
      <trkpt lat="49.98365" lon="2.47375">
        <ele>112.6</ele>
        <time>2013-09-29T08:19:34Z</time>
      </trkpt>
      <trkpt lat="49.98372" lon="2.47357">
        <ele>113.5</ele>
        <time>2013-09-29T08:19:44Z</time>
      </trkpt>
      <trkpt lat="49.98382" lon="2.47341">
        <ele>114.3</ele>
        <time>2013-09-29T08:19:54Z</time>
      </trkpt>
      <trkpt lat="49.98389" lon="2.47323">
        <ele>115</ele>
        <time>2013-09-29T08:20:04Z</time>
      </trkpt>
      <trkpt lat="49.98394" lon="2.47303">
        <ele>115.6</ele>
        <time>2013-09-29T08:20:14Z</time>
      </trkpt>
      <trkpt lat="49.98402" lon="2.47284">
        <ele>116.4</ele>
        <time>2013-09-29T08:20:25Z</time>
      </trkpt>
      <trkpt lat="49.98408" lon="2.47265">
        <ele>117</ele>
        <time>2013-09-29T08:20:34Z</time>
      </trkpt>
      <trkpt lat="49.98413" lon="2.47244">
        <ele>114</ele>
        <time>2013-09-29T08:20:45Z</time>
      </trkpt>
      <trkpt lat="49.9841" lon="2.47223">
        <ele>110.7</ele>
        <time>2013-09-29T08:20:54Z</time>
      </trkpt>
      <trkpt lat="49.98397" lon="2.47218">
        <ele>106.3</ele>
        <time>2013-09-29T08:21:04Z</time>
      </trkpt>
      <trkpt lat="49.98384" lon="2.47207">
        <ele>104.3</ele>
        <time>2013-09-29T08:21:15Z</time>
      </trkpt>
      <trkpt lat="49.98373" lon="2.47193">
        <ele>102.9</ele>
        <time>2013-09-29T08:21:28Z</time>
      </trkpt>
      <trkpt lat="49.98361" lon="2.47183">
        <ele>102.2</ele>
        <time>2013-09-29T08:21:38Z</time>
      </trkpt>
      <trkpt lat="49.9835" lon="2.47168">
        <ele>105</ele>
        <time>2013-09-29T08:21:49Z</time>
      </trkpt>
      <trkpt lat="49.98342" lon="2.4715">
        <ele>106.6</ele>
        <time>2013-09-29T08:21:58Z</time>
      </trkpt>
      <trkpt lat="49.98341" lon="2.47129">
        <ele>108.3</ele>
        <time>2013-09-29T08:22:08Z</time>
      </trkpt>
      <trkpt lat="49.98342" lon="2.47106">
        <ele>108.6</ele>
        <time>2013-09-29T08:22:18Z</time>
      </trkpt>
      <trkpt lat="49.98343" lon="2.47085">
        <ele>107.9</ele>
        <time>2013-09-29T08:22:28Z</time>
      </trkpt>
      <trkpt lat="49.98344" lon="2.47063">
        <ele>107.3</ele>
        <time>2013-09-29T08:22:37Z</time>
      </trkpt>
      <trkpt lat="49.98347" lon="2.47041">
        <ele>106.5</ele>
        <time>2013-09-29T08:22:49Z</time>
      </trkpt>
      <trkpt lat="49.98344" lon="2.4702">
        <ele>105.7</ele>
        <time>2013-09-29T08:22:59Z</time>
      </trkpt>
      <trkpt lat="49.98349" lon="2.46999">
        <ele>104.6</ele>
        <time>2013-09-29T08:23:08Z</time>
      </trkpt>
      <trkpt lat="49.98351" lon="2.46978">
        <ele>103.5</ele>
        <time>2013-09-29T08:23:18Z</time>
      </trkpt>
      <trkpt lat="49.98353" lon="2.46956">
        <ele>101.8</ele>
        <time>2013-09-29T08:23:30Z</time>
      </trkpt>
      <trkpt lat="49.98354" lon="2.46934">
        <ele>100</ele>
        <time>2013-09-29T08:23:42Z</time>
      </trkpt>
      <trkpt lat="49.98354" lon="2.46912">
        <ele>98.2</ele>
        <time>2013-09-29T08:23:54Z</time>
      </trkpt>
      <trkpt lat="49.98367" lon="2.46903">
        <ele>98.3</ele>
        <time>2013-09-29T08:24:09Z</time>
      </trkpt>
      <trkpt lat="49.98379" lon="2.46913">
        <ele>98.3</ele>
        <time>2013-09-29T08:24:19Z</time>
      </trkpt>
      <trkpt lat="49.9839" lon="2.46926">
        <ele>96.9</ele>
        <time>2013-09-29T08:24:31Z</time>
      </trkpt>
      <trkpt lat="49.98403" lon="2.46935">
        <ele>95.6</ele>
        <time>2013-09-29T08:24:42Z</time>
      </trkpt>
      <trkpt lat="49.98416" lon="2.46925">
        <ele>94.2</ele>
        <time>2013-09-29T08:24:54Z</time>
      </trkpt>
      <trkpt lat="49.98426" lon="2.46909">
        <ele>92.6</ele>
        <time>2013-09-29T08:25:04Z</time>
      </trkpt>
      <trkpt lat="49.98432" lon="2.46889">
        <ele>91.5</ele>
        <time>2013-09-29T08:25:14Z</time>
      </trkpt>
      <trkpt lat="49.98441" lon="2.46871">
        <ele>92.9</ele>
        <time>2013-09-29T08:25:24Z</time>
      </trkpt>
      <trkpt lat="49.98444" lon="2.46851">
        <ele>92</ele>
        <time>2013-09-29T08:25:34Z</time>
      </trkpt>
      <trkpt lat="49.98443" lon="2.46828">
        <ele>91</ele>
        <time>2013-09-29T08:25:45Z</time>
      </trkpt>
      <trkpt lat="49.98442" lon="2.46806">
        <ele>88.9</ele>
        <time>2013-09-29T08:25:57Z</time>
      </trkpt>
      <trkpt lat="49.98441" lon="2.46784">
        <ele>87.1</ele>
        <time>2013-09-29T08:26:07Z</time>
      </trkpt>
      <trkpt lat="49.9844" lon="2.46762">
        <ele>85.7</ele>
        <time>2013-09-29T08:26:17Z</time>
      </trkpt>
      <trkpt lat="49.98437" lon="2.46741">
        <ele>84.8</ele>
        <time>2013-09-29T08:26:28Z</time>
      </trkpt>
      <trkpt lat="49.98433" lon="2.4672">
        <ele>83.8</ele>
        <time>2013-09-29T08:26:41Z</time>
      </trkpt>
      <trkpt lat="49.98432" lon="2.46698">
        <ele>83</ele>
        <time>2013-09-29T08:26:51Z</time>
      </trkpt>
      <trkpt lat="49.98433" lon="2.46677">
        <ele>82.5</ele>
        <time>2013-09-29T08:27:01Z</time>
      </trkpt>
      <trkpt lat="49.98436" lon="2.46655">
        <ele>82</ele>
        <time>2013-09-29T08:27:13Z</time>
      </trkpt>
      <trkpt lat="49.98443" lon="2.46636">
        <ele>81.6</ele>
        <time>2013-09-29T08:27:22Z</time>
      </trkpt>
      <trkpt lat="49.98449" lon="2.46615">
        <ele>81.1</ele>
        <time>2013-09-29T08:27:33Z</time>
      </trkpt>
      <trkpt lat="49.98457" lon="2.46597">
        <ele>80.6</ele>
        <time>2013-09-29T08:27:44Z</time>
      </trkpt>
      <trkpt lat="49.98467" lon="2.46581">
        <ele>80.1</ele>
        <time>2013-09-29T08:27:54Z</time>
      </trkpt>
      <trkpt lat="49.98478" lon="2.46566">
        <ele>79.6</ele>
        <time>2013-09-29T08:28:05Z</time>
      </trkpt>
      <trkpt lat="49.98489" lon="2.46551">
        <ele>79.1</ele>
        <time>2013-09-29T08:28:16Z</time>
      </trkpt>
      <trkpt lat="49.98499" lon="2.46534">
        <ele>80.4</ele>
        <time>2013-09-29T08:28:27Z</time>
      </trkpt>
      <trkpt lat="49.98508" lon="2.46516">
        <ele>81.8</ele>
        <time>2013-09-29T08:28:35Z</time>
      </trkpt>
      <trkpt lat="49.98515" lon="2.46498">
        <ele>80.1</ele>
        <time>2013-09-29T08:28:46Z</time>
      </trkpt>
      <trkpt lat="49.98524" lon="2.4648">
        <ele>77</ele>
        <time>2013-09-29T08:28:58Z</time>
      </trkpt>
      <trkpt lat="49.98534" lon="2.46463">
        <ele>73.1</ele>
        <time>2013-09-29T08:29:10Z</time>
      </trkpt>
      <trkpt lat="49.98547" lon="2.46454">
        <ele>73.9</ele>
        <time>2013-09-29T08:29:18Z</time>
      </trkpt>
      <trkpt lat="49.98559" lon="2.46442">
        <ele>73</ele>
        <time>2013-09-29T08:29:28Z</time>
      </trkpt>
      <trkpt lat="49.98571" lon="2.46429">
        <ele>70.8</ele>
        <time>2013-09-29T08:29:43Z</time>
      </trkpt>
      <trkpt lat="49.98583" lon="2.46417">
        <ele>69.3</ele>
        <time>2013-09-29T08:29:52Z</time>
      </trkpt>
      <trkpt lat="49.98596" lon="2.4641">
        <ele>69</ele>
        <time>2013-09-29T08:30:01Z</time>
      </trkpt>
      <trkpt lat="49.98598" lon="2.46433">
        <ele>66</ele>
        <time>2013-09-29T08:30:15Z</time>
      </trkpt>
      <trkpt lat="49.98595" lon="2.46455">
        <ele>68.5</ele>
        <time>2013-09-29T08:30:25Z</time>
      </trkpt>
      <trkpt lat="49.98592" lon="2.46477">
        <ele>70.3</ele>
        <time>2013-09-29T08:30:32Z</time>
      </trkpt>
      <trkpt lat="49.98594" lon="2.465">
        <ele>72.4</ele>
        <time>2013-09-29T08:30:40Z</time>
      </trkpt>
      <trkpt lat="49.986" lon="2.4652">
        <ele>75.1</ele>
        <time>2013-09-29T08:30:50Z</time>
      </trkpt>
      <trkpt lat="49.98614" lon="2.46533">
        <ele>78</ele>
        <time>2013-09-29T08:31:01Z</time>
      </trkpt>
      <trkpt lat="49.98625" lon="2.46546">
        <ele>80.3</ele>
        <time>2013-09-29T08:31:06Z</time>
      </trkpt>
      <trkpt lat="49.98632" lon="2.46564">
        <ele>83</ele>
        <time>2013-09-29T08:31:15Z</time>
      </trkpt>
      <trkpt lat="49.98639" lon="2.46584">
        <ele>83.3</ele>
        <time>2013-09-29T08:31:25Z</time>
      </trkpt>
      <trkpt lat="49.98647" lon="2.46602">
        <ele>78</ele>
        <time>2013-09-29T08:31:40Z</time>
      </trkpt>
      <trkpt lat="49.98657" lon="2.46617">
        <ele>75.5</ele>
        <time>2013-09-29T08:31:53Z</time>
      </trkpt>
      <trkpt lat="49.98665" lon="2.46635">
        <ele>76</ele>
        <time>2013-09-29T08:32:02Z</time>
      </trkpt>
      <trkpt lat="49.98673" lon="2.46655">
        <ele>75.5</ele>
        <time>2013-09-29T08:32:12Z</time>
      </trkpt>
      <trkpt lat="49.98681" lon="2.46672">
        <ele>75.2</ele>
        <time>2013-09-29T08:32:21Z</time>
      </trkpt>
      <trkpt lat="49.98688" lon="2.4669">
        <ele>75</ele>
        <time>2013-09-29T08:32:31Z</time>
      </trkpt>
      <trkpt lat="49.98694" lon="2.4671">
        <ele>75.4</ele>
        <time>2013-09-29T08:32:42Z</time>
      </trkpt>
      <trkpt lat="49.98701" lon="2.46728">
        <ele>76</ele>
        <time>2013-09-29T08:32:53Z</time>
      </trkpt>
      <trkpt lat="49.9871" lon="2.46746">
        <ele>76.7</ele>
        <time>2013-09-29T08:33:05Z</time>
      </trkpt>
      <trkpt lat="49.9872" lon="2.4676">
        <ele>77.3</ele>
        <time>2013-09-29T08:33:14Z</time>
      </trkpt>
      <trkpt lat="49.98732" lon="2.46772">
        <ele>78</ele>
        <time>2013-09-29T08:33:26Z</time>
      </trkpt>
      <trkpt lat="49.98741" lon="2.4679">
        <ele>76.8</ele>
        <time>2013-09-29T08:33:39Z</time>
      </trkpt>
      <trkpt lat="49.98745" lon="2.46811">
        <ele>75.7</ele>
        <time>2013-09-29T08:33:51Z</time>
      </trkpt>
      <trkpt lat="49.98748" lon="2.46831">
        <ele>75.2</ele>
        <time>2013-09-29T08:34:01Z</time>
      </trkpt>
      <trkpt lat="49.98742" lon="2.46853">
        <ele>76.3</ele>
        <time>2013-09-29T08:34:14Z</time>
      </trkpt>
      <trkpt lat="49.98738" lon="2.46874">
        <ele>77.2</ele>
        <time>2013-09-29T08:34:24Z</time>
      </trkpt>
      <trkpt lat="49.98731" lon="2.46894">
        <ele>78.4</ele>
        <time>2013-09-29T08:34:35Z</time>
      </trkpt>
      <trkpt lat="49.98727" lon="2.46915">
        <ele>80.7</ele>
        <time>2013-09-29T08:34:47Z</time>
      </trkpt>
      <trkpt lat="49.9872" lon="2.46935">
        <ele>82.5</ele>
        <time>2013-09-29T08:34:57Z</time>
      </trkpt>
      <trkpt lat="49.98719" lon="2.46956">
        <ele>82.1</ele>
        <time>2013-09-29T08:35:10Z</time>
      </trkpt>
      <trkpt lat="49.98716" lon="2.46978">
        <ele>83</ele>
        <time>2013-09-29T08:35:21Z</time>
      </trkpt>
      <trkpt lat="49.9872" lon="2.46999">
        <ele>84.3</ele>
        <time>2013-09-29T08:35:33Z</time>
      </trkpt>
      <trkpt lat="49.98727" lon="2.47018">
        <ele>85.2</ele>
        <time>2013-09-29T08:35:42Z</time>
      </trkpt>
      <trkpt lat="49.98735" lon="2.47037">
        <ele>86.5</ele>
        <time>2013-09-29T08:35:52Z</time>
      </trkpt>
      <trkpt lat="49.98747" lon="2.4705">
        <ele>87.9</ele>
        <time>2013-09-29T08:36:04Z</time>
      </trkpt>
      <trkpt lat="49.98761" lon="2.47058">
        <ele>89</ele>
        <time>2013-09-29T08:36:13Z</time>
      </trkpt>
      <trkpt lat="49.98774" lon="2.47066">
        <ele>95.2</ele>
        <time>2013-09-29T08:36:22Z</time>
      </trkpt>
      <trkpt lat="49.98786" lon="2.47078">
        <ele>98</ele>
        <time>2013-09-29T08:36:32Z</time>
      </trkpt>
      <trkpt lat="49.98801" lon="2.47083">
        <ele>98.5</ele>
        <time>2013-09-29T08:36:41Z</time>
      </trkpt>
      <trkpt lat="49.98814" lon="2.47081">
        <ele>101.8</ele>
        <time>2013-09-29T08:36:50Z</time>
      </trkpt>
      <trkpt lat="49.98828" lon="2.47084">
        <ele>103.4</ele>
        <time>2013-09-29T08:37:00Z</time>
      </trkpt>
      <trkpt lat="49.9884" lon="2.47099">
        <ele>103.8</ele>
        <time>2013-09-29T08:37:10Z</time>
      </trkpt>
      <trkpt lat="49.98847" lon="2.47118">
        <ele>103.3</ele>
        <time>2013-09-29T08:37:22Z</time>
      </trkpt>
      <trkpt lat="49.98849" lon="2.47139">
        <ele>102.4</ele>
        <time>2013-09-29T08:37:32Z</time>
      </trkpt>
      <trkpt lat="49.98855" lon="2.47159">
        <ele>100.8</ele>
        <time>2013-09-29T08:37:49Z</time>
      </trkpt>
      <trkpt lat="49.9886" lon="2.47179">
        <ele>100.3</ele>
        <time>2013-09-29T08:37:59Z</time>
      </trkpt>
      <trkpt lat="49.98863" lon="2.47199">
        <ele>102.9</ele>
        <time>2013-09-29T08:38:09Z</time>
      </trkpt>
      <trkpt lat="49.98863" lon="2.47221">
        <ele>105.5</ele>
        <time>2013-09-29T08:38:19Z</time>
      </trkpt>
      <trkpt lat="49.98874" lon="2.47236">
        <ele>110.4</ele>
        <time>2013-09-29T08:38:38Z</time>
      </trkpt>
      <trkpt lat="49.98887" lon="2.47241">
        <ele>112</ele>
        <time>2013-09-29T08:38:44Z</time>
      </trkpt>
      <trkpt lat="49.98901" lon="2.47247">
        <ele>114.2</ele>
        <time>2013-09-29T08:38:52Z</time>
      </trkpt>
      <trkpt lat="49.98915" lon="2.47249">
        <ele>111.1</ele>
        <time>2013-09-29T08:39:04Z</time>
      </trkpt>
      <trkpt lat="49.98929" lon="2.47256">
        <ele>111.3</ele>
        <time>2013-09-29T08:39:13Z</time>
      </trkpt>
      <trkpt lat="49.98943" lon="2.47257">
        <ele>111.6</ele>
        <time>2013-09-29T08:39:25Z</time>
      </trkpt>
      <trkpt lat="49.98956" lon="2.47262">
        <ele>111.8</ele>
        <time>2013-09-29T08:39:36Z</time>
      </trkpt>
      <trkpt lat="49.9897" lon="2.47267">
        <ele>112</ele>
        <time>2013-09-29T08:39:45Z</time>
      </trkpt>
      <trkpt lat="49.98977" lon="2.4727">
        <ele>108.7</ele>
        <time>2013-09-29T08:39:59Z</time>
      </trkpt>
      <trkpt lat="49.98977" lon="2.4727">
        <ele>108.7</ele>
        <time>2013-09-29T08:41:59Z</time>
      </trkpt>
      <trkpt lat="49.98971" lon="2.47262">
        <ele>104.7</ele>
        <time>2013-09-29T08:42:01Z</time>
      </trkpt>
      <trkpt lat="49.98957" lon="2.47258">
        <ele>104.2</ele>
        <time>2013-09-29T08:42:16Z</time>
      </trkpt>
      <trkpt lat="49.98944" lon="2.47253">
        <ele>104.6</ele>
        <time>2013-09-29T08:42:28Z</time>
      </trkpt>
      <trkpt lat="49.98931" lon="2.47246">
        <ele>104.9</ele>
        <time>2013-09-29T08:42:39Z</time>
      </trkpt>
      <trkpt lat="49.98917" lon="2.47241">
        <ele>105.4</ele>
        <time>2013-09-29T08:42:56Z</time>
      </trkpt>
      <trkpt lat="49.98888" lon="2.47224">
        <ele>103.6</ele>
        <time>2013-09-29T08:43:28Z</time>
      </trkpt>
      <trkpt lat="49.98888" lon="2.47224">
        <ele>103.6</ele>
        <time>2013-09-29T08:47:12Z</time>
      </trkpt>
      <trkpt lat="49.98872" lon="2.47212">
        <ele>101.4</ele>
        <time>2013-09-29T08:47:14Z</time>
      </trkpt>
      <trkpt lat="49.98867" lon="2.47193">
        <ele>101.2</ele>
        <time>2013-09-29T08:47:27Z</time>
      </trkpt>
      <trkpt lat="49.98862" lon="2.47172">
        <ele>100.9</ele>
        <time>2013-09-29T08:47:39Z</time>
      </trkpt>
      <trkpt lat="49.98859" lon="2.4715">
        <ele>100.7</ele>
        <time>2013-09-29T08:47:51Z</time>
      </trkpt>
      <trkpt lat="49.98854" lon="2.4713">
        <ele>100.5</ele>
        <time>2013-09-29T08:48:03Z</time>
      </trkpt>
      <trkpt lat="49.98849" lon="2.4711">
        <ele>100.2</ele>
        <time>2013-09-29T08:48:14Z</time>
      </trkpt>
      <trkpt lat="49.98845" lon="2.4709">
        <ele>98.9</ele>
        <time>2013-09-29T08:48:28Z</time>
      </trkpt>
      <trkpt lat="49.98843" lon="2.47068">
        <ele>97</ele>
        <time>2013-09-29T08:48:39Z</time>
      </trkpt>
      <trkpt lat="49.9884" lon="2.47046">
        <ele>97.2</ele>
        <time>2013-09-29T08:48:48Z</time>
      </trkpt>
      <trkpt lat="49.98836" lon="2.47026">
        <ele>97.7</ele>
        <time>2013-09-29T08:49:00Z</time>
      </trkpt>
      <trkpt lat="49.98831" lon="2.47005">
        <ele>96</ele>
        <time>2013-09-29T08:49:15Z</time>
      </trkpt>
      <trkpt lat="49.98831" lon="2.46983">
        <ele>94.6</ele>
        <time>2013-09-29T08:49:29Z</time>
      </trkpt>
      <trkpt lat="49.98826" lon="2.46962">
        <ele>93.2</ele>
        <time>2013-09-29T08:49:41Z</time>
      </trkpt>
      <trkpt lat="49.98826" lon="2.4694">
        <ele>92</ele>
        <time>2013-09-29T08:49:51Z</time>
      </trkpt>
      <trkpt lat="49.98828" lon="2.46919">
        <ele>89.4</ele>
        <time>2013-09-29T08:50:00Z</time>
      </trkpt>
      <trkpt lat="49.98829" lon="2.46897">
        <ele>87.4</ele>
        <time>2013-09-29T08:50:11Z</time>
      </trkpt>
      <trkpt lat="49.9883" lon="2.46875">
        <ele>85.6</ele>
        <time>2013-09-29T08:50:24Z</time>
      </trkpt>
      <trkpt lat="49.98831" lon="2.46852">
        <ele>83.8</ele>
        <time>2013-09-29T08:50:37Z</time>
      </trkpt>
      <trkpt lat="49.98829" lon="2.46829">
        <ele>81.7</ele>
        <time>2013-09-29T08:50:49Z</time>
      </trkpt>
      <trkpt lat="49.98829" lon="2.46808">
        <ele>80.3</ele>
        <time>2013-09-29T08:50:58Z</time>
      </trkpt>
      <trkpt lat="49.9883" lon="2.46787">
        <ele>78.5</ele>
        <time>2013-09-29T08:51:11Z</time>
      </trkpt>
      <trkpt lat="49.98816" lon="2.46779">
        <ele>78.6</ele>
        <time>2013-09-29T08:51:23Z</time>
      </trkpt>
      <trkpt lat="49.98802" lon="2.46781">
        <ele>77.8</ele>
        <time>2013-09-29T08:51:35Z</time>
      </trkpt>
      <trkpt lat="49.98787" lon="2.46783">
        <ele>77.2</ele>
        <time>2013-09-29T08:51:47Z</time>
      </trkpt>
      <trkpt lat="49.98774" lon="2.46787">
        <ele>76.6</ele>
        <time>2013-09-29T08:51:58Z</time>
      </trkpt>
      <trkpt lat="49.9876" lon="2.46785">
        <ele>76.2</ele>
        <time>2013-09-29T08:52:07Z</time>
      </trkpt>
      <trkpt lat="49.98747" lon="2.46781">
        <ele>75.6</ele>
        <time>2013-09-29T08:52:18Z</time>
      </trkpt>
      <trkpt lat="49.98733" lon="2.46776">
        <ele>75.2</ele>
        <time>2013-09-29T08:52:32Z</time>
      </trkpt>
      <trkpt lat="49.98721" lon="2.46764">
        <ele>76.2</ele>
        <time>2013-09-29T08:52:41Z</time>
      </trkpt>
      <trkpt lat="49.98711" lon="2.46748">
        <ele>77.3</ele>
        <time>2013-09-29T08:52:51Z</time>
      </trkpt>
      <trkpt lat="49.987" lon="2.46734">
        <ele>77.8</ele>
        <time>2013-09-29T08:53:00Z</time>
      </trkpt>
      <trkpt lat="49.98692" lon="2.46715">
        <ele>77</ele>
        <time>2013-09-29T08:53:11Z</time>
      </trkpt>
      <trkpt lat="49.98685" lon="2.46695">
        <ele>76.2</ele>
        <time>2013-09-29T08:53:23Z</time>
      </trkpt>
      <trkpt lat="49.98677" lon="2.46676">
        <ele>75.6</ele>
        <time>2013-09-29T08:53:32Z</time>
      </trkpt>
      <trkpt lat="49.98674" lon="2.46654">
        <ele>75</ele>
        <time>2013-09-29T08:53:40Z</time>
      </trkpt>
      <trkpt lat="49.98664" lon="2.46637">
        <ele>73.4</ele>
        <time>2013-09-29T08:53:53Z</time>
      </trkpt>
      <trkpt lat="49.98658" lon="2.46618">
        <ele>72.3</ele>
        <time>2013-09-29T08:54:02Z</time>
      </trkpt>
      <trkpt lat="49.98655" lon="2.46594">
        <ele>71.9</ele>
        <time>2013-09-29T08:54:06Z</time>
      </trkpt>
      <trkpt lat="49.98643" lon="2.4658">
        <ele>73.2</ele>
        <time>2013-09-29T08:54:19Z</time>
      </trkpt>
      <trkpt lat="49.98633" lon="2.46565">
        <ele>76.2</ele>
        <time>2013-09-29T08:54:31Z</time>
      </trkpt>
      <trkpt lat="49.98625" lon="2.46548">
        <ele>78</ele>
        <time>2013-09-29T08:54:41Z</time>
      </trkpt>
      <trkpt lat="49.98617" lon="2.46529">
        <ele>76.7</ele>
        <time>2013-09-29T08:54:53Z</time>
      </trkpt>
      <trkpt lat="49.98605" lon="2.46517">
        <ele>75.3</ele>
        <time>2013-09-29T08:55:05Z</time>
      </trkpt>
      <trkpt lat="49.98597" lon="2.46499">
        <ele>72.9</ele>
        <time>2013-09-29T08:55:20Z</time>
      </trkpt>
      <trkpt lat="49.98598" lon="2.46477">
        <ele>71.8</ele>
        <time>2013-09-29T08:55:27Z</time>
      </trkpt>
      <trkpt lat="49.98601" lon="2.46453">
        <ele>71.5</ele>
        <time>2013-09-29T08:55:30Z</time>
      </trkpt>
      <trkpt lat="49.98601" lon="2.46431">
        <ele>70.9</ele>
        <time>2013-09-29T08:55:37Z</time>
      </trkpt>
      <trkpt lat="49.98602" lon="2.46408">
        <ele>69.6</ele>
        <time>2013-09-29T08:55:51Z</time>
      </trkpt>
      <trkpt lat="49.98605" lon="2.46387">
        <ele>69.7</ele>
        <time>2013-09-29T08:56:04Z</time>
      </trkpt>
      <trkpt lat="49.98611" lon="2.46367">
        <ele>68.5</ele>
        <time>2013-09-29T08:56:13Z</time>
      </trkpt>
      <trkpt lat="49.98616" lon="2.46347">
        <ele>67.1</ele>
        <time>2013-09-29T08:56:23Z</time>
      </trkpt>
      <trkpt lat="49.98619" lon="2.46325">
        <ele>65.8</ele>
        <time>2013-09-29T08:56:32Z</time>
      </trkpt>
      <trkpt lat="49.98623" lon="2.46303">
        <ele>64.4</ele>
        <time>2013-09-29T08:56:42Z</time>
      </trkpt>
      <trkpt lat="49.98625" lon="2.46281">
        <ele>63</ele>
        <time>2013-09-29T08:56:52Z</time>
      </trkpt>
      <trkpt lat="49.98631" lon="2.4626">
        <ele>66.8</ele>
        <time>2013-09-29T08:57:04Z</time>
      </trkpt>
      <trkpt lat="49.98634" lon="2.46237">
        <ele>68.6</ele>
        <time>2013-09-29T08:57:18Z</time>
      </trkpt>
      <trkpt lat="49.98639" lon="2.46218">
        <ele>72.6</ele>
        <time>2013-09-29T08:57:30Z</time>
      </trkpt>
      <trkpt lat="49.98647" lon="2.46201">
        <ele>73</ele>
        <time>2013-09-29T08:57:43Z</time>
      </trkpt>
      <trkpt lat="49.98652" lon="2.4618">
        <ele>73</ele>
        <time>2013-09-29T08:57:51Z</time>
      </trkpt>
      <trkpt lat="49.98654" lon="2.46158">
        <ele>71.5</ele>
        <time>2013-09-29T08:58:02Z</time>
      </trkpt>
      <trkpt lat="49.98659" lon="2.46136">
        <ele>69.9</ele>
        <time>2013-09-29T08:58:11Z</time>
      </trkpt>
      <trkpt lat="49.98666" lon="2.46116">
        <ele>68.8</ele>
        <time>2013-09-29T08:58:21Z</time>
      </trkpt>
      <trkpt lat="49.98669" lon="2.46095">
        <ele>68.5</ele>
        <time>2013-09-29T08:58:32Z</time>
      </trkpt>
      <trkpt lat="49.98673" lon="2.46075">
        <ele>68.1</ele>
        <time>2013-09-29T08:58:42Z</time>
      </trkpt>
      <trkpt lat="49.98675" lon="2.46054">
        <ele>67.8</ele>
        <time>2013-09-29T08:58:52Z</time>
      </trkpt>
      <trkpt lat="49.98678" lon="2.46033">
        <ele>67.5</ele>
        <time>2013-09-29T08:59:01Z</time>
      </trkpt>
      <trkpt lat="49.98682" lon="2.4599">
        <ele>66.8</ele>
        <time>2013-09-29T08:59:21Z</time>
      </trkpt>
      <trkpt lat="49.98682" lon="2.4599">
        <ele>66.8</ele>
        <time>2013-09-29T09:01:29Z</time>
      </trkpt>
      <trkpt lat="49.98681" lon="2.45968">
        <ele>66.7</ele>
        <time>2013-09-29T09:01:30Z</time>
      </trkpt>
      <trkpt lat="49.98677" lon="2.45947">
        <ele>68</ele>
        <time>2013-09-29T09:01:41Z</time>
      </trkpt>
      <trkpt lat="49.98671" lon="2.45925">
        <ele>64.7</ele>
        <time>2013-09-29T09:01:51Z</time>
      </trkpt>
      <trkpt lat="49.98669" lon="2.45904">
        <ele>63.5</ele>
        <time>2013-09-29T09:01:58Z</time>
      </trkpt>
      <trkpt lat="49.98668" lon="2.45882">
        <ele>63.4</ele>
        <time>2013-09-29T09:02:09Z</time>
      </trkpt>
      <trkpt lat="49.98664" lon="2.45862">
        <ele>61.2</ele>
        <time>2013-09-29T09:02:20Z</time>
      </trkpt>
      <trkpt lat="49.98655" lon="2.45825">
        <ele>61.9</ele>
        <time>2013-09-29T09:02:36Z</time>
      </trkpt>
      <trkpt lat="49.98655" lon="2.45825">
        <ele>61.9</ele>
        <time>2013-09-29T09:13:19Z</time>
      </trkpt>
      <trkpt lat="49.98655" lon="2.45806">
        <ele>63.3</ele>
        <time>2013-09-29T09:13:22Z</time>
      </trkpt>
      <trkpt lat="49.98651" lon="2.45784">
        <ele>61.7</ele>
        <time>2013-09-29T09:13:36Z</time>
      </trkpt>
      <trkpt lat="49.9865" lon="2.45762">
        <ele>60.4</ele>
        <time>2013-09-29T09:13:52Z</time>
      </trkpt>
      <trkpt lat="49.98651" lon="2.45739">
        <ele>59.6</ele>
        <time>2013-09-29T09:14:04Z</time>
      </trkpt>
      <trkpt lat="49.98654" lon="2.45717">
        <ele>59.1</ele>
        <time>2013-09-29T09:14:13Z</time>
      </trkpt>
      <trkpt lat="49.98646" lon="2.457">
        <ele>58.3</ele>
        <time>2013-09-29T09:14:25Z</time>
      </trkpt>
      <trkpt lat="49.98645" lon="2.45679">
        <ele>57.7</ele>
        <time>2013-09-29T09:14:35Z</time>
      </trkpt>
      <trkpt lat="49.98641" lon="2.45659">
        <ele>57.1</ele>
        <time>2013-09-29T09:14:45Z</time>
      </trkpt>
      <trkpt lat="49.98642" lon="2.45637">
        <ele>57.7</ele>
        <time>2013-09-29T09:14:58Z</time>
      </trkpt>
      <trkpt lat="49.98642" lon="2.45615">
        <ele>58.3</ele>
        <time>2013-09-29T09:15:09Z</time>
      </trkpt>
      <trkpt lat="49.98641" lon="2.45592">
        <ele>59</ele>
        <time>2013-09-29T09:15:20Z</time>
      </trkpt>
      <trkpt lat="49.98639" lon="2.45571">
        <ele>59.6</ele>
        <time>2013-09-29T09:15:31Z</time>
      </trkpt>
      <trkpt lat="49.9864" lon="2.45549">
        <ele>60.2</ele>
        <time>2013-09-29T09:15:43Z</time>
      </trkpt>
      <trkpt lat="49.98639" lon="2.45526">
        <ele>60.6</ele>
        <time>2013-09-29T09:15:54Z</time>
      </trkpt>
      <trkpt lat="49.98639" lon="2.45505">
        <ele>60.9</ele>
        <time>2013-09-29T09:16:03Z</time>
      </trkpt>
      <trkpt lat="49.98638" lon="2.45483">
        <ele>61.3</ele>
        <time>2013-09-29T09:16:14Z</time>
      </trkpt>
      <trkpt lat="49.98637" lon="2.45461">
        <ele>61.8</ele>
        <time>2013-09-29T09:16:26Z</time>
      </trkpt>
      <trkpt lat="49.9864" lon="2.45439">
        <ele>62.2</ele>
        <time>2013-09-29T09:16:38Z</time>
      </trkpt>
      <trkpt lat="49.98638" lon="2.45417">
        <ele>62.7</ele>
        <time>2013-09-29T09:16:51Z</time>
      </trkpt>
      <trkpt lat="49.98631" lon="2.45396">
        <ele>63</ele>
        <time>2013-09-29T09:17:00Z</time>
      </trkpt>
      <trkpt lat="49.9863" lon="2.45372">
        <ele>63.3</ele>
        <time>2013-09-29T09:17:09Z</time>
      </trkpt>
      <trkpt lat="49.98624" lon="2.45353">
        <ele>63.7</ele>
        <time>2013-09-29T09:17:18Z</time>
      </trkpt>
      <trkpt lat="49.98619" lon="2.45351">
        <ele>63.9</ele>
        <time>2013-09-29T09:17:23Z</time>
      </trkpt>
      <trkpt lat="49.98606" lon="2.45358">
        <ele>58.1</ele>
        <time>2013-09-29T09:17:35Z</time>
      </trkpt>
      <trkpt lat="49.98593" lon="2.45369">
        <ele>58.5</ele>
        <time>2013-09-29T09:17:43Z</time>
      </trkpt>
      <trkpt lat="49.98579" lon="2.4537">
        <ele>59.1</ele>
        <time>2013-09-29T09:17:53Z</time>
      </trkpt>
      <trkpt lat="49.98565" lon="2.4537">
        <ele>59.6</ele>
        <time>2013-09-29T09:18:03Z</time>
      </trkpt>
      <trkpt lat="49.98551" lon="2.45371">
        <ele>60.1</ele>
        <time>2013-09-29T09:18:13Z</time>
      </trkpt>
      <trkpt lat="49.98537" lon="2.45368">
        <ele>60.6</ele>
        <time>2013-09-29T09:18:23Z</time>
      </trkpt>
      <trkpt lat="49.98522" lon="2.45376">
        <ele>61.5</ele>
        <time>2013-09-29T09:18:34Z</time>
      </trkpt>
      <trkpt lat="49.98508" lon="2.45381">
        <ele>63.2</ele>
        <time>2013-09-29T09:18:46Z</time>
      </trkpt>
      <trkpt lat="49.98495" lon="2.4538">
        <ele>64.7</ele>
        <time>2013-09-29T09:18:56Z</time>
      </trkpt>
      <trkpt lat="49.9848" lon="2.45383">
        <ele>66.7</ele>
        <time>2013-09-29T09:19:08Z</time>
      </trkpt>
      <trkpt lat="49.98465" lon="2.45387">
        <ele>66</ele>
        <time>2013-09-29T09:19:15Z</time>
      </trkpt>
      <trkpt lat="49.98454" lon="2.45374">
        <ele>61.4</ele>
        <time>2013-09-29T09:19:30Z</time>
      </trkpt>
      <trkpt lat="49.98441" lon="2.45366">
        <ele>58.6</ele>
        <time>2013-09-29T09:19:40Z</time>
      </trkpt>
      <trkpt lat="49.98432" lon="2.4535">
        <ele>57.5</ele>
        <time>2013-09-29T09:19:51Z</time>
      </trkpt>
      <trkpt lat="49.98421" lon="2.45335">
        <ele>56.9</ele>
        <time>2013-09-29T09:20:01Z</time>
      </trkpt>
      <trkpt lat="49.98409" lon="2.45326">
        <ele>56.4</ele>
        <time>2013-09-29T09:20:11Z</time>
      </trkpt>
      <trkpt lat="49.98398" lon="2.45312">
        <ele>55.7</ele>
        <time>2013-09-29T09:20:22Z</time>
      </trkpt>
      <trkpt lat="49.98383" lon="2.45305">
        <ele>55.2</ele>
        <time>2013-09-29T09:20:32Z</time>
      </trkpt>
      <trkpt lat="49.98369" lon="2.45292">
        <ele>55</ele>
        <time>2013-09-29T09:20:35Z</time>
      </trkpt>
      <trkpt lat="49.9836" lon="2.45275">
        <ele>54.1</ele>
        <time>2013-09-29T09:20:52Z</time>
      </trkpt>
      <trkpt lat="49.98351" lon="2.45259">
        <ele>51.5</ele>
        <time>2013-09-29T09:21:03Z</time>
      </trkpt>
      <trkpt lat="49.98342" lon="2.45243">
        <ele>50.5</ele>
        <time>2013-09-29T09:21:13Z</time>
      </trkpt>
      <trkpt lat="49.98332" lon="2.45227">
        <ele>51.6</ele>
        <time>2013-09-29T09:21:23Z</time>
      </trkpt>
      <trkpt lat="49.98325" lon="2.45207">
        <ele>53.8</ele>
        <time>2013-09-29T09:21:31Z</time>
      </trkpt>
      <trkpt lat="49.98319" lon="2.45187">
        <ele>55.6</ele>
        <time>2013-09-29T09:21:40Z</time>
      </trkpt>
      <trkpt lat="49.98314" lon="2.45167">
        <ele>54.2</ele>
        <time>2013-09-29T09:21:51Z</time>
      </trkpt>
      <trkpt lat="49.98309" lon="2.45146">
        <ele>52.7</ele>
        <time>2013-09-29T09:22:03Z</time>
      </trkpt>
      <trkpt lat="49.98301" lon="2.45127">
        <ele>51.8</ele>
        <time>2013-09-29T09:22:14Z</time>
      </trkpt>
      <trkpt lat="49.98291" lon="2.4511">
        <ele>51.4</ele>
        <time>2013-09-29T09:22:23Z</time>
      </trkpt>
      <trkpt lat="49.9828" lon="2.45098">
        <ele>50.9</ele>
        <time>2013-09-29T09:22:32Z</time>
      </trkpt>
      <trkpt lat="49.98269" lon="2.45085">
        <ele>50.5</ele>
        <time>2013-09-29T09:22:42Z</time>
      </trkpt>
      <trkpt lat="49.98256" lon="2.45073">
        <ele>50</ele>
        <time>2013-09-29T09:22:53Z</time>
      </trkpt>
      <trkpt lat="49.98246" lon="2.4506">
        <ele>49.6</ele>
        <time>2013-09-29T09:23:02Z</time>
      </trkpt>
      <trkpt lat="49.98234" lon="2.45047">
        <ele>49.1</ele>
        <time>2013-09-29T09:23:11Z</time>
      </trkpt>
      <trkpt lat="49.98223" lon="2.45032">
        <ele>43.3</ele>
        <time>2013-09-29T09:23:21Z</time>
      </trkpt>
      <trkpt lat="49.98226" lon="2.45009">
        <ele>44.9</ele>
        <time>2013-09-29T09:23:33Z</time>
      </trkpt>
      <trkpt lat="49.98233" lon="2.44991">
        <ele>46.3</ele>
        <time>2013-09-29T09:23:43Z</time>
      </trkpt>
      <trkpt lat="49.98242" lon="2.44973">
        <ele>47.5</ele>
        <time>2013-09-29T09:23:55Z</time>
      </trkpt>
      <trkpt lat="49.98252" lon="2.44957">
        <ele>48.4</ele>
        <time>2013-09-29T09:24:09Z</time>
      </trkpt>
      <trkpt lat="49.98265" lon="2.44947">
        <ele>49.1</ele>
        <time>2013-09-29T09:24:19Z</time>
      </trkpt>
      <trkpt lat="49.9828" lon="2.44947">
        <ele>49.6</ele>
        <time>2013-09-29T09:24:27Z</time>
      </trkpt>
      <trkpt lat="49.98293" lon="2.44938">
        <ele>50.2</ele>
        <time>2013-09-29T09:24:36Z</time>
      </trkpt>
      <trkpt lat="49.98307" lon="2.44933">
        <ele>50.7</ele>
        <time>2013-09-29T09:24:45Z</time>
      </trkpt>
      <trkpt lat="49.9832" lon="2.44929">
        <ele>50.4</ele>
        <time>2013-09-29T09:24:52Z</time>
      </trkpt>
      <trkpt lat="49.98332" lon="2.44916">
        <ele>47.6</ele>
        <time>2013-09-29T09:25:07Z</time>
      </trkpt>
      <trkpt lat="49.98346" lon="2.44912">
        <ele>46.5</ele>
        <time>2013-09-29T09:25:22Z</time>
      </trkpt>
      <trkpt lat="49.9836" lon="2.44908">
        <ele>46.2</ele>
        <time>2013-09-29T09:25:31Z</time>
      </trkpt>
      <trkpt lat="49.98376" lon="2.44906">
        <ele>45.9</ele>
        <time>2013-09-29T09:25:38Z</time>
      </trkpt>
      <trkpt lat="49.9839" lon="2.44898">
        <ele>45.4</ele>
        <time>2013-09-29T09:25:49Z</time>
      </trkpt>
      <trkpt lat="49.98403" lon="2.44892">
        <ele>45</ele>
        <time>2013-09-29T09:26:00Z</time>
      </trkpt>
      <trkpt lat="49.98416" lon="2.44881">
        <ele>45.9</ele>
        <time>2013-09-29T09:26:13Z</time>
      </trkpt>
      <trkpt lat="49.98425" lon="2.44864">
        <ele>47.4</ele>
        <time>2013-09-29T09:26:24Z</time>
      </trkpt>
      <trkpt lat="49.98429" lon="2.44827">
        <ele>55.4</ele>
        <time>2013-09-29T09:26:58Z</time>
      </trkpt>
      <trkpt lat="49.98429" lon="2.44827">
        <ele>55.4</ele>
        <time>2013-09-29T09:28:34Z</time>
      </trkpt>
      <trkpt lat="49.98422" lon="2.44805">
        <ele>60.7</ele>
        <time>2013-09-29T09:28:47Z</time>
      </trkpt>
      <trkpt lat="49.98412" lon="2.44789">
        <ele>62.6</ele>
        <time>2013-09-29T09:29:01Z</time>
      </trkpt>
      <trkpt lat="49.984" lon="2.44776">
        <ele>65.7</ele>
        <time>2013-09-29T09:29:14Z</time>
      </trkpt>
      <trkpt lat="49.9839" lon="2.44761">
        <ele>63.6</ele>
        <time>2013-09-29T09:29:25Z</time>
      </trkpt>
      <trkpt lat="49.9838" lon="2.44744">
        <ele>61.1</ele>
        <time>2013-09-29T09:29:40Z</time>
      </trkpt>
      <trkpt lat="49.98374" lon="2.44724">
        <ele>59.7</ele>
        <time>2013-09-29T09:29:50Z</time>
      </trkpt>
      <trkpt lat="49.98362" lon="2.44711">
        <ele>58.3</ele>
        <time>2013-09-29T09:30:01Z</time>
      </trkpt>
      <trkpt lat="49.98352" lon="2.44694">
        <ele>57</ele>
        <time>2013-09-29T09:30:13Z</time>
      </trkpt>
      <trkpt lat="49.98351" lon="2.44686">
        <ele>57</ele>
        <time>2013-09-29T09:30:20Z</time>
      </trkpt>
      <trkpt lat="49.98342" lon="2.44669">
        <ele>54.8</ele>
        <time>2013-09-29T09:30:34Z</time>
      </trkpt>
      <trkpt lat="49.98331" lon="2.44655">
        <ele>53.5</ele>
        <time>2013-09-29T09:30:44Z</time>
      </trkpt>
      <trkpt lat="49.9832" lon="2.4464">
        <ele>52.3</ele>
        <time>2013-09-29T09:30:56Z</time>
      </trkpt>
      <trkpt lat="49.9831" lon="2.44625">
        <ele>53.4</ele>
        <time>2013-09-29T09:31:08Z</time>
      </trkpt>
      <trkpt lat="49.98303" lon="2.44607">
        <ele>54.1</ele>
        <time>2013-09-29T09:31:19Z</time>
      </trkpt>
      <trkpt lat="49.98294" lon="2.4459">
        <ele>54.7</ele>
        <time>2013-09-29T09:31:30Z</time>
      </trkpt>
      <trkpt lat="49.98283" lon="2.44576">
        <ele>55.3</ele>
        <time>2013-09-29T09:31:41Z</time>
      </trkpt>
      <trkpt lat="49.98274" lon="2.44559">
        <ele>56</ele>
        <time>2013-09-29T09:31:54Z</time>
      </trkpt>
      <trkpt lat="49.98264" lon="2.44545">
        <ele>56.5</ele>
        <time>2013-09-29T09:32:03Z</time>
      </trkpt>
      <trkpt lat="49.98251" lon="2.44535">
        <ele>56.6</ele>
        <time>2013-09-29T09:32:15Z</time>
      </trkpt>
      <trkpt lat="49.9824" lon="2.44519">
        <ele>55</ele>
        <time>2013-09-29T09:32:27Z</time>
      </trkpt>
      <trkpt lat="49.98233" lon="2.44497">
        <ele>54.2</ele>
        <time>2013-09-29T09:32:37Z</time>
      </trkpt>
      <trkpt lat="49.9823" lon="2.44477">
        <ele>55.1</ele>
        <time>2013-09-29T09:32:46Z</time>
      </trkpt>
      <trkpt lat="49.98228" lon="2.44455">
        <ele>56</ele>
        <time>2013-09-29T09:32:55Z</time>
      </trkpt>
      <trkpt lat="49.98235" lon="2.44436">
        <ele>57.3</ele>
        <time>2013-09-29T09:33:07Z</time>
      </trkpt>
      <trkpt lat="49.9824" lon="2.44415">
        <ele>58.8</ele>
        <time>2013-09-29T09:33:18Z</time>
      </trkpt>
      <trkpt lat="49.98246" lon="2.44395">
        <ele>61.2</ele>
        <time>2013-09-29T09:33:29Z</time>
      </trkpt>
      <trkpt lat="49.98253" lon="2.44377">
        <ele>63.8</ele>
        <time>2013-09-29T09:33:41Z</time>
      </trkpt>
      <trkpt lat="49.98257" lon="2.44357">
        <ele>61.9</ele>
        <time>2013-09-29T09:33:54Z</time>
      </trkpt>
      <trkpt lat="49.98261" lon="2.44335">
        <ele>62.2</ele>
        <time>2013-09-29T09:34:05Z</time>
      </trkpt>
      <trkpt lat="49.98261" lon="2.44314">
        <ele>65.8</ele>
        <time>2013-09-29T09:34:21Z</time>
      </trkpt>
      <trkpt lat="49.98254" lon="2.44295">
        <ele>69.9</ele>
        <time>2013-09-29T09:34:31Z</time>
      </trkpt>
      <trkpt lat="49.98245" lon="2.44278">
        <ele>69</ele>
        <time>2013-09-29T09:34:42Z</time>
      </trkpt>
      <trkpt lat="49.98231" lon="2.44275">
        <ele>71</ele>
        <time>2013-09-29T09:34:53Z</time>
      </trkpt>
      <trkpt lat="49.98217" lon="2.44271">
        <ele>70.3</ele>
        <time>2013-09-29T09:35:05Z</time>
      </trkpt>
      <trkpt lat="49.98204" lon="2.44263">
        <ele>70.5</ele>
        <time>2013-09-29T09:35:17Z</time>
      </trkpt>
      <trkpt lat="49.98191" lon="2.44253">
        <ele>71</ele>
        <time>2013-09-29T09:35:23Z</time>
      </trkpt>
      <trkpt lat="49.98177" lon="2.44251">
        <ele>72.1</ele>
        <time>2013-09-29T09:35:39Z</time>
      </trkpt>
      <trkpt lat="49.98163" lon="2.44247">
        <ele>73</ele>
        <time>2013-09-29T09:35:52Z</time>
      </trkpt>
      <trkpt lat="49.9815" lon="2.44236">
        <ele>73.9</ele>
        <time>2013-09-29T09:36:06Z</time>
      </trkpt>
      <trkpt lat="49.98137" lon="2.44241">
        <ele>77.1</ele>
        <time>2013-09-29T09:36:14Z</time>
      </trkpt>
      <trkpt lat="49.98127" lon="2.44256">
        <ele>77.9</ele>
        <time>2013-09-29T09:36:27Z</time>
      </trkpt>
      <trkpt lat="49.98118" lon="2.44273">
        <ele>74.8</ele>
        <time>2013-09-29T09:36:38Z</time>
      </trkpt>
      <trkpt lat="49.98106" lon="2.44285">
        <ele>73.9</ele>
        <time>2013-09-29T09:36:49Z</time>
      </trkpt>
      <trkpt lat="49.98099" lon="2.44305">
        <ele>73.2</ele>
        <time>2013-09-29T09:36:57Z</time>
      </trkpt>
      <trkpt lat="49.9809" lon="2.44322">
        <ele>72.4</ele>
        <time>2013-09-29T09:37:07Z</time>
      </trkpt>
      <trkpt lat="49.98083" lon="2.44343">
        <ele>70.5</ele>
        <time>2013-09-29T09:37:20Z</time>
      </trkpt>
      <trkpt lat="49.98075" lon="2.4436">
        <ele>65.3</ele>
        <time>2013-09-29T09:37:32Z</time>
      </trkpt>
      <trkpt lat="49.98064" lon="2.44377">
        <ele>63.6</ele>
        <time>2013-09-29T09:37:41Z</time>
      </trkpt>
      <trkpt lat="49.98056" lon="2.44394">
        <ele>62.8</ele>
        <time>2013-09-29T09:37:52Z</time>
      </trkpt>
      <trkpt lat="49.98047" lon="2.44411">
        <ele>62.6</ele>
        <time>2013-09-29T09:38:02Z</time>
      </trkpt>
      <trkpt lat="49.98039" lon="2.44429">
        <ele>62.3</ele>
        <time>2013-09-29T09:38:14Z</time>
      </trkpt>
      <trkpt lat="49.98032" lon="2.44447">
        <ele>62.2</ele>
        <time>2013-09-29T09:38:23Z</time>
      </trkpt>
      <trkpt lat="49.98026" lon="2.44467">
        <ele>62</ele>
        <time>2013-09-29T09:38:32Z</time>
      </trkpt>
      <trkpt lat="49.98019" lon="2.44487">
        <ele>61.6</ele>
        <time>2013-09-29T09:38:45Z</time>
      </trkpt>
      <trkpt lat="49.98009" lon="2.44503">
        <ele>61.4</ele>
        <time>2013-09-29T09:38:56Z</time>
      </trkpt>
      <trkpt lat="49.97999" lon="2.44519">
        <ele>61.1</ele>
        <time>2013-09-29T09:39:07Z</time>
      </trkpt>
      <trkpt lat="49.9799" lon="2.44536">
        <ele>60.7</ele>
        <time>2013-09-29T09:39:22Z</time>
      </trkpt>
      <trkpt lat="49.97978" lon="2.44549">
        <ele>60.5</ele>
        <time>2013-09-29T09:39:32Z</time>
      </trkpt>
      <trkpt lat="49.97963" lon="2.44545">
        <ele>60.3</ele>
        <time>2013-09-29T09:39:41Z</time>
      </trkpt>
      <trkpt lat="49.97953" lon="2.4453">
        <ele>60</ele>
        <time>2013-09-29T09:39:52Z</time>
      </trkpt>
      <trkpt lat="49.97942" lon="2.44516">
        <ele>59.7</ele>
        <time>2013-09-29T09:40:04Z</time>
      </trkpt>
      <trkpt lat="49.97932" lon="2.445">
        <ele>59.5</ele>
        <time>2013-09-29T09:40:14Z</time>
      </trkpt>
      <trkpt lat="49.97921" lon="2.44487">
        <ele>59.3</ele>
        <time>2013-09-29T09:40:21Z</time>
      </trkpt>
      <trkpt lat="49.9791" lon="2.44475">
        <ele>59</ele>
        <time>2013-09-29T09:40:31Z</time>
      </trkpt>
      <trkpt lat="49.97896" lon="2.44478">
        <ele>60.2</ele>
        <time>2013-09-29T09:40:42Z</time>
      </trkpt>
      <trkpt lat="49.97882" lon="2.4448">
        <ele>61.6</ele>
        <time>2013-09-29T09:40:52Z</time>
      </trkpt>
      <trkpt lat="49.97869" lon="2.44481">
        <ele>60.9</ele>
        <time>2013-09-29T09:41:01Z</time>
      </trkpt>
      <trkpt lat="49.9786" lon="2.4449">
        <ele>57.9</ele>
        <time>2013-09-29T09:41:16Z</time>
      </trkpt>
      <trkpt lat="49.97861" lon="2.44492">
        <ele>57.4</ele>
        <time>2013-09-29T09:41:18Z</time>
      </trkpt>
      <trkpt lat="49.97847" lon="2.44485">
        <ele>50.8</ele>
        <time>2013-09-29T09:41:30Z</time>
      </trkpt>
      <trkpt lat="49.97834" lon="2.44475">
        <ele>47.1</ele>
        <time>2013-09-29T09:41:37Z</time>
      </trkpt>
      <trkpt lat="49.97821" lon="2.44468">
        <ele>48.9</ele>
        <time>2013-09-29T09:41:42Z</time>
      </trkpt>
      <trkpt lat="49.97807" lon="2.44466">
        <ele>48.5</ele>
        <time>2013-09-29T09:41:51Z</time>
      </trkpt>
      <trkpt lat="49.97793" lon="2.44461">
        <ele>47.6</ele>
        <time>2013-09-29T09:42:01Z</time>
      </trkpt>
      <trkpt lat="49.97778" lon="2.44454">
        <ele>48.9</ele>
        <time>2013-09-29T09:42:10Z</time>
      </trkpt>
      <trkpt lat="49.97765" lon="2.44451">
        <ele>49.9</ele>
        <time>2013-09-29T09:42:17Z</time>
      </trkpt>
      <trkpt lat="49.9775" lon="2.44446">
        <ele>50.4</ele>
        <time>2013-09-29T09:42:29Z</time>
      </trkpt>
      <trkpt lat="49.97738" lon="2.44435">
        <ele>49.4</ele>
        <time>2013-09-29T09:42:37Z</time>
      </trkpt>
      <trkpt lat="49.97723" lon="2.44434">
        <ele>44.3</ele>
        <time>2013-09-29T09:42:54Z</time>
      </trkpt>
      <trkpt lat="49.97709" lon="2.44428">
        <ele>47.4</ele>
        <time>2013-09-29T09:43:04Z</time>
      </trkpt>
      <trkpt lat="49.97696" lon="2.44422">
        <ele>52.2</ele>
        <time>2013-09-29T09:43:14Z</time>
      </trkpt>
      <trkpt lat="49.97682" lon="2.44418">
        <ele>56.1</ele>
        <time>2013-09-29T09:43:28Z</time>
      </trkpt>
      <trkpt lat="49.97668" lon="2.44414">
        <ele>56.6</ele>
        <time>2013-09-29T09:43:37Z</time>
      </trkpt>
      <trkpt lat="49.97655" lon="2.44406">
        <ele>55.9</ele>
        <time>2013-09-29T09:43:48Z</time>
      </trkpt>
      <trkpt lat="49.97639" lon="2.44402">
        <ele>54.2</ele>
        <time>2013-09-29T09:43:56Z</time>
      </trkpt>
      <trkpt lat="49.97626" lon="2.44398">
        <ele>51.3</ele>
        <time>2013-09-29T09:44:11Z</time>
      </trkpt>
      <trkpt lat="49.97613" lon="2.44391">
        <ele>50.2</ele>
        <time>2013-09-29T09:44:19Z</time>
      </trkpt>
      <trkpt lat="49.976" lon="2.44385">
        <ele>49</ele>
        <time>2013-09-29T09:44:28Z</time>
      </trkpt>
      <trkpt lat="49.97585" lon="2.44385">
        <ele>49</ele>
        <time>2013-09-29T09:44:40Z</time>
      </trkpt>
      <trkpt lat="49.97572" lon="2.44377">
        <ele>50.6</ele>
        <time>2013-09-29T09:44:49Z</time>
      </trkpt>
      <trkpt lat="49.97558" lon="2.44372">
        <ele>48.7</ele>
        <time>2013-09-29T09:45:01Z</time>
      </trkpt>
      <trkpt lat="49.97545" lon="2.44369">
        <ele>46.2</ele>
        <time>2013-09-29T09:45:11Z</time>
      </trkpt>
      <trkpt lat="49.97531" lon="2.44362">
        <ele>45.1</ele>
        <time>2013-09-29T09:45:23Z</time>
      </trkpt>
      <trkpt lat="49.97518" lon="2.44354">
        <ele>46.4</ele>
        <time>2013-09-29T09:45:32Z</time>
      </trkpt>
      <trkpt lat="49.97504" lon="2.44348">
        <ele>48.4</ele>
        <time>2013-09-29T09:45:43Z</time>
      </trkpt>
      <trkpt lat="49.97491" lon="2.4434">
        <ele>50.2</ele>
        <time>2013-09-29T09:45:54Z</time>
      </trkpt>
      <trkpt lat="49.97476" lon="2.44335">
        <ele>51.3</ele>
        <time>2013-09-29T09:46:05Z</time>
      </trkpt>
      <trkpt lat="49.97462" lon="2.44329">
        <ele>52.6</ele>
        <time>2013-09-29T09:46:19Z</time>
      </trkpt>
      <trkpt lat="49.97463" lon="2.4431">
        <ele>53.8</ele>
        <time>2013-09-29T09:46:37Z</time>
      </trkpt>
      <trkpt lat="49.9747" lon="2.44305">
        <ele>51.3</ele>
        <time>2013-09-29T09:46:46Z</time>
      </trkpt>
      <trkpt lat="49.97464" lon="2.44283">
        <ele>49.5</ele>
        <time>2013-09-29T09:46:53Z</time>
      </trkpt>
      <trkpt lat="49.97463" lon="2.44261">
        <ele>51.6</ele>
        <time>2013-09-29T09:47:04Z</time>
      </trkpt>
      <trkpt lat="49.97466" lon="2.4424">
        <ele>50.1</ele>
        <time>2013-09-29T09:47:12Z</time>
      </trkpt>
      <trkpt lat="49.97463" lon="2.44219">
        <ele>50.4</ele>
        <time>2013-09-29T09:47:23Z</time>
      </trkpt>
      <trkpt lat="49.97456" lon="2.442">
        <ele>51.6</ele>
        <time>2013-09-29T09:47:37Z</time>
      </trkpt>
      <trkpt lat="49.97442" lon="2.44196">
        <ele>51</ele>
        <time>2013-09-29T09:47:47Z</time>
      </trkpt>
      <trkpt lat="49.97427" lon="2.44195">
        <ele>50.4</ele>
        <time>2013-09-29T09:47:59Z</time>
      </trkpt>
      <trkpt lat="49.97412" lon="2.44196">
        <ele>49.9</ele>
        <time>2013-09-29T09:48:08Z</time>
      </trkpt>
      <trkpt lat="49.97397" lon="2.44198">
        <ele>49.4</ele>
        <time>2013-09-29T09:48:16Z</time>
      </trkpt>
      <trkpt lat="49.97382" lon="2.44202">
        <ele>49.4</ele>
        <time>2013-09-29T09:48:28Z</time>
      </trkpt>
      <trkpt lat="49.97369" lon="2.44207">
        <ele>50.6</ele>
        <time>2013-09-29T09:48:42Z</time>
      </trkpt>
      <trkpt lat="49.97355" lon="2.44211">
        <ele>51.5</ele>
        <time>2013-09-29T09:48:52Z</time>
      </trkpt>
      <trkpt lat="49.97342" lon="2.44219">
        <ele>52.4</ele>
        <time>2013-09-29T09:49:02Z</time>
      </trkpt>
      <trkpt lat="49.97329" lon="2.44225">
        <ele>53.4</ele>
        <time>2013-09-29T09:49:14Z</time>
      </trkpt>
      <trkpt lat="49.97315" lon="2.4423">
        <ele>54.3</ele>
        <time>2013-09-29T09:49:24Z</time>
      </trkpt>
      <trkpt lat="49.97301" lon="2.44236">
        <ele>59</ele>
        <time>2013-09-29T09:49:37Z</time>
      </trkpt>
      <trkpt lat="49.97288" lon="2.44237">
        <ele>56.4</ele>
        <time>2013-09-29T09:49:46Z</time>
      </trkpt>
      <trkpt lat="49.97274" lon="2.44244">
        <ele>57.5</ele>
        <time>2013-09-29T09:49:57Z</time>
      </trkpt>
      <trkpt lat="49.97261" lon="2.44247">
        <ele>59</ele>
        <time>2013-09-29T09:50:10Z</time>
      </trkpt>
      <trkpt lat="49.97247" lon="2.44243">
        <ele>57.4</ele>
        <time>2013-09-29T09:50:20Z</time>
      </trkpt>
      <trkpt lat="49.97233" lon="2.44239">
        <ele>55.8</ele>
        <time>2013-09-29T09:50:30Z</time>
      </trkpt>
      <trkpt lat="49.97216" lon="2.44233">
        <ele>55.3</ele>
        <time>2013-09-29T09:50:47Z</time>
      </trkpt>
      <trkpt lat="49.97216" lon="2.44233">
        <ele>55.3</ele>
        <time>2013-09-29T09:54:00Z</time>
      </trkpt>
      <trkpt lat="49.97206" lon="2.44232">
        <ele>56.2</ele>
        <time>2013-09-29T09:54:09Z</time>
      </trkpt>
      <trkpt lat="49.97193" lon="2.44227">
        <ele>55.9</ele>
        <time>2013-09-29T09:54:19Z</time>
      </trkpt>
      <trkpt lat="49.97179" lon="2.44224">
        <ele>55.7</ele>
        <time>2013-09-29T09:54:28Z</time>
      </trkpt>
      <trkpt lat="49.97165" lon="2.44228">
        <ele>55.5</ele>
        <time>2013-09-29T09:54:38Z</time>
      </trkpt>
      <trkpt lat="49.97153" lon="2.44238">
        <ele>55.2</ele>
        <time>2013-09-29T09:54:49Z</time>
      </trkpt>
      <trkpt lat="49.97141" lon="2.44251">
        <ele>54.7</ele>
        <time>2013-09-29T09:55:03Z</time>
      </trkpt>
      <trkpt lat="49.97129" lon="2.44264">
        <ele>54.1</ele>
        <time>2013-09-29T09:55:15Z</time>
      </trkpt>
      <trkpt lat="49.97115" lon="2.44267">
        <ele>53.5</ele>
        <time>2013-09-29T09:55:27Z</time>
      </trkpt>
      <trkpt lat="49.97101" lon="2.44265">
        <ele>53</ele>
        <time>2013-09-29T09:55:38Z</time>
      </trkpt>
      <trkpt lat="49.97085" lon="2.4426">
        <ele>52.6</ele>
        <time>2013-09-29T09:55:45Z</time>
      </trkpt>
      <trkpt lat="49.97073" lon="2.4425">
        <ele>52.2</ele>
        <time>2013-09-29T09:55:53Z</time>
      </trkpt>
      <trkpt lat="49.97061" lon="2.44241">
        <ele>52.2</ele>
        <time>2013-09-29T09:55:59Z</time>
      </trkpt>
      <trkpt lat="49.97049" lon="2.44228">
        <ele>52.9</ele>
        <time>2013-09-29T09:56:07Z</time>
      </trkpt>
      <trkpt lat="49.97036" lon="2.44216">
        <ele>53.8</ele>
        <time>2013-09-29T09:56:17Z</time>
      </trkpt>
      <trkpt lat="49.97025" lon="2.44203">
        <ele>54.6</ele>
        <time>2013-09-29T09:56:26Z</time>
      </trkpt>
      <trkpt lat="49.97013" lon="2.4419">
        <ele>52.8</ele>
        <time>2013-09-29T09:56:36Z</time>
      </trkpt>
      <trkpt lat="49.97002" lon="2.44178">
        <ele>52</ele>
        <time>2013-09-29T09:56:50Z</time>
      </trkpt>
      <trkpt lat="49.96989" lon="2.44166">
        <ele>53.1</ele>
        <time>2013-09-29T09:57:00Z</time>
      </trkpt>
      <trkpt lat="49.96976" lon="2.44156">
        <ele>56.3</ele>
        <time>2013-09-29T09:57:11Z</time>
      </trkpt>
      <trkpt lat="49.96963" lon="2.44151">
        <ele>56.4</ele>
        <time>2013-09-29T09:57:20Z</time>
      </trkpt>
      <trkpt lat="49.96949" lon="2.44143">
        <ele>54.4</ele>
        <time>2013-09-29T09:57:28Z</time>
      </trkpt>
      <trkpt lat="49.96934" lon="2.44144">
        <ele>50</ele>
        <time>2013-09-29T09:57:36Z</time>
      </trkpt>
      <trkpt lat="49.9692" lon="2.44137">
        <ele>53.1</ele>
        <time>2013-09-29T09:57:47Z</time>
      </trkpt>
      <trkpt lat="49.96906" lon="2.44134">
        <ele>51.7</ele>
        <time>2013-09-29T09:57:55Z</time>
      </trkpt>
      <trkpt lat="49.96892" lon="2.44134">
        <ele>50</ele>
        <time>2013-09-29T09:58:03Z</time>
      </trkpt>
      <trkpt lat="49.96877" lon="2.44137">
        <ele>47.5</ele>
        <time>2013-09-29T09:58:19Z</time>
      </trkpt>
      <trkpt lat="49.96864" lon="2.44146">
        <ele>48.9</ele>
        <time>2013-09-29T09:58:28Z</time>
      </trkpt>
      <trkpt lat="49.96854" lon="2.4415">
        <ele>48.6</ele>
        <time>2013-09-29T09:58:33Z</time>
      </trkpt>
      <trkpt lat="49.96841" lon="2.44158">
        <ele>47.3</ele>
        <time>2013-09-29T09:58:50Z</time>
      </trkpt>
      <trkpt lat="49.96828" lon="2.44167">
        <ele>46.5</ele>
        <time>2013-09-29T09:59:00Z</time>
      </trkpt>
      <trkpt lat="49.96814" lon="2.4417">
        <ele>46.3</ele>
        <time>2013-09-29T09:59:09Z</time>
      </trkpt>
      <trkpt lat="49.96799" lon="2.44174">
        <ele>47.8</ele>
        <time>2013-09-29T09:59:18Z</time>
      </trkpt>
      <trkpt lat="49.96786" lon="2.44183">
        <ele>48.9</ele>
        <time>2013-09-29T09:59:27Z</time>
      </trkpt>
      <trkpt lat="49.96773" lon="2.44194">
        <ele>48.4</ele>
        <time>2013-09-29T09:59:38Z</time>
      </trkpt>
      <trkpt lat="49.9676" lon="2.44204">
        <ele>47.8</ele>
        <time>2013-09-29T09:59:49Z</time>
      </trkpt>
      <trkpt lat="49.96748" lon="2.44214">
        <ele>47</ele>
        <time>2013-09-29T10:00:05Z</time>
      </trkpt>
      <trkpt lat="49.96735" lon="2.44226">
        <ele>46.4</ele>
        <time>2013-09-29T10:00:17Z</time>
      </trkpt>
      <trkpt lat="49.96722" lon="2.44234">
        <ele>46.1</ele>
        <time>2013-09-29T10:00:25Z</time>
      </trkpt>
      <trkpt lat="49.96709" lon="2.44242">
        <ele>50.5</ele>
        <time>2013-09-29T10:00:33Z</time>
      </trkpt>
      <trkpt lat="49.96695" lon="2.44244">
        <ele>52.5</ele>
        <time>2013-09-29T10:00:41Z</time>
      </trkpt>
      <trkpt lat="49.96681" lon="2.44246">
        <ele>53.3</ele>
        <time>2013-09-29T10:00:52Z</time>
      </trkpt>
      <trkpt lat="49.96667" lon="2.44246">
        <ele>53.7</ele>
        <time>2013-09-29T10:01:02Z</time>
      </trkpt>
      <trkpt lat="49.96655" lon="2.44234">
        <ele>54.1</ele>
        <time>2013-09-29T10:01:13Z</time>
      </trkpt>
      <trkpt lat="49.96641" lon="2.44229">
        <ele>54.5</ele>
        <time>2013-09-29T10:01:22Z</time>
      </trkpt>
      <trkpt lat="49.96627" lon="2.44233">
        <ele>54.8</ele>
        <time>2013-09-29T10:01:32Z</time>
      </trkpt>
      <trkpt lat="49.96613" lon="2.44228">
        <ele>55.2</ele>
        <time>2013-09-29T10:01:41Z</time>
      </trkpt>
      <trkpt lat="49.96599" lon="2.44229">
        <ele>55.5</ele>
        <time>2013-09-29T10:01:51Z</time>
      </trkpt>
      <trkpt lat="49.96585" lon="2.4422">
        <ele>56</ele>
        <time>2013-09-29T10:02:03Z</time>
      </trkpt>
      <trkpt lat="49.96573" lon="2.44208">
        <ele>55.3</ele>
        <time>2013-09-29T10:02:11Z</time>
      </trkpt>
      <trkpt lat="49.9656" lon="2.44203">
        <ele>54.1</ele>
        <time>2013-09-29T10:02:26Z</time>
      </trkpt>
      <trkpt lat="49.96545" lon="2.44198">
        <ele>53.3</ele>
        <time>2013-09-29T10:02:36Z</time>
      </trkpt>
      <trkpt lat="49.96529" lon="2.442">
        <ele>52.9</ele>
        <time>2013-09-29T10:02:40Z</time>
      </trkpt>
      <trkpt lat="49.96516" lon="2.44197">
        <ele>51.8</ele>
        <time>2013-09-29T10:02:53Z</time>
      </trkpt>
      <trkpt lat="49.96513" lon="2.44175">
        <ele>51.2</ele>
        <time>2013-09-29T10:03:04Z</time>
      </trkpt>
      <trkpt lat="49.96509" lon="2.44152">
        <ele>53.3</ele>
        <time>2013-09-29T10:03:16Z</time>
      </trkpt>
      <trkpt lat="49.96507" lon="2.44132">
        <ele>58.5</ele>
        <time>2013-09-29T10:03:26Z</time>
      </trkpt>
      <trkpt lat="49.96503" lon="2.44112">
        <ele>65.5</ele>
        <time>2013-09-29T10:03:35Z</time>
      </trkpt>
      <trkpt lat="49.965" lon="2.4409">
        <ele>68.8</ele>
        <time>2013-09-29T10:03:45Z</time>
      </trkpt>
      <trkpt lat="49.96502" lon="2.44069">
        <ele>68.5</ele>
        <time>2013-09-29T10:03:55Z</time>
      </trkpt>
      <trkpt lat="49.96499" lon="2.44048">
        <ele>67.8</ele>
        <time>2013-09-29T10:04:06Z</time>
      </trkpt>
      <trkpt lat="49.96495" lon="2.44026">
        <ele>65.9</ele>
        <time>2013-09-29T10:04:19Z</time>
      </trkpt>
      <trkpt lat="49.96496" lon="2.44004">
        <ele>64</ele>
        <time>2013-09-29T10:04:30Z</time>
      </trkpt>
      <trkpt lat="49.9649" lon="2.43984">
        <ele>63.7</ele>
        <time>2013-09-29T10:04:40Z</time>
      </trkpt>
      <trkpt lat="49.96488" lon="2.43979">
        <ele>63.3</ele>
        <time>2013-09-29T10:04:46Z</time>
      </trkpt>
      <trkpt lat="49.96473" lon="2.43986">
        <ele>63.8</ele>
        <time>2013-09-29T10:04:54Z</time>
      </trkpt>
      <trkpt lat="49.96461" lon="2.44">
        <ele>62.9</ele>
        <time>2013-09-29T10:05:01Z</time>
      </trkpt>
      <trkpt lat="49.96446" lon="2.43999">
        <ele>56.7</ele>
        <time>2013-09-29T10:05:17Z</time>
      </trkpt>
      <trkpt lat="49.96431" lon="2.44002">
        <ele>55.2</ele>
        <time>2013-09-29T10:05:23Z</time>
      </trkpt>
      <trkpt lat="49.96417" lon="2.44007">
        <ele>50.6</ele>
        <time>2013-09-29T10:05:40Z</time>
      </trkpt>
      <trkpt lat="49.964" lon="2.44014">
        <ele>49.3</ele>
        <time>2013-09-29T10:05:46Z</time>
      </trkpt>
      <trkpt lat="49.96386" lon="2.44015">
        <ele>46.6</ele>
        <time>2013-09-29T10:06:01Z</time>
      </trkpt>
      <trkpt lat="49.96373" lon="2.44008">
        <ele>45.8</ele>
        <time>2013-09-29T10:06:11Z</time>
      </trkpt>
      <trkpt lat="49.96375" lon="2.43989">
        <ele>53</ele>
        <time>2013-09-29T10:06:30Z</time>
      </trkpt>
      <trkpt lat="49.96375" lon="2.43989">
        <ele>53</ele>
        <time>2013-09-29T10:07:31Z</time>
      </trkpt>
      <trkpt lat="49.96384" lon="2.4399">
        <ele>54.7</ele>
        <time>2013-09-29T10:07:34Z</time>
      </trkpt>
      <trkpt lat="49.96401" lon="2.43998">
        <ele>54.3</ele>
        <time>2013-09-29T10:07:39Z</time>
      </trkpt>
      <trkpt lat="49.96386" lon="2.43997">
        <ele>53.4</ele>
        <time>2013-09-29T10:07:53Z</time>
      </trkpt>
    </trkseg>
  </trk>
</gpx>